<?xml version="1.0" encoding="UTF-8" standalone="no" ?>
<gpx xmlns="http://www.topografix.com/GPX/1/1" xmlns:xsi="http://www.w3.org/2001/XMLSchema-instance" xsi:schemaLocation="http://www.topografix.com/GPX/1/1 http://www.topografix.com/GPX/1/1/gpx.xsd" version="1.1" creator="VisuGPX - https://www.visugpx.com">
  <metadata>
    <name>Sur les hauteurs de Jouy-en-Josas</name>
    <desc><![CDATA[Randonnée de 10 km en boucle à partir de la gare de Jouy-en-Josas]]></desc>
  </metadata>
  <trk>
    <name><![CDATA[10 Jouy en Josas -Buc _R2]]></name>
    <trkseg>
      <trkpt lat="48.76497" lon="2.16357">
        <ele>93.87</ele>
        <time>2015-06-14T07:25:23Z</time>
      </trkpt>
      <trkpt lat="48.76497" lon="2.16357">
        <ele>93.87</ele>
        <time>2015-06-14T07:25:24Z</time>
      </trkpt>
      <trkpt lat="48.76499" lon="2.16356">
        <ele>94.35</ele>
        <time>2015-06-14T07:25:44Z</time>
      </trkpt>
      <trkpt lat="48.765" lon="2.16352">
        <ele>93.87</ele>
        <time>2015-06-14T07:26:00Z</time>
      </trkpt>
      <trkpt lat="48.76499" lon="2.16348">
        <ele>94.35</ele>
        <time>2015-06-14T07:26:24Z</time>
      </trkpt>
      <trkpt lat="48.76497" lon="2.16344">
        <ele>94.35</ele>
        <time>2015-06-14T07:26:37Z</time>
      </trkpt>
      <trkpt lat="48.76498" lon="2.16343">
        <ele>93.87</ele>
        <time>2015-06-14T07:26:55Z</time>
      </trkpt>
      <trkpt lat="48.76499" lon="2.16348">
        <ele>93.87</ele>
        <time>2015-06-14T07:27:10Z</time>
      </trkpt>
      <trkpt lat="48.76499" lon="2.16348">
        <ele>94.35</ele>
        <time>2015-06-14T07:27:32Z</time>
      </trkpt>
      <trkpt lat="48.76497" lon="2.1635">
        <ele>94.35</ele>
        <time>2015-06-14T07:27:51Z</time>
      </trkpt>
      <trkpt lat="48.76499" lon="2.1635">
        <ele>94.35</ele>
        <time>2015-06-14T07:28:04Z</time>
      </trkpt>
      <trkpt lat="48.76501" lon="2.16344">
        <ele>93.87</ele>
        <time>2015-06-14T07:28:19Z</time>
      </trkpt>
      <trkpt lat="48.76499" lon="2.16346">
        <ele>93.87</ele>
        <time>2015-06-14T07:28:34Z</time>
      </trkpt>
      <trkpt lat="48.76501" lon="2.16349">
        <ele>93.87</ele>
        <time>2015-06-14T07:28:52Z</time>
      </trkpt>
      <trkpt lat="48.765" lon="2.16348">
        <ele>93.87</ele>
        <time>2015-06-14T07:29:11Z</time>
      </trkpt>
      <trkpt lat="48.76501" lon="2.16347">
        <ele>93.39</ele>
        <time>2015-06-14T07:29:36Z</time>
      </trkpt>
      <trkpt lat="48.76501" lon="2.1635">
        <ele>93.39</ele>
        <time>2015-06-14T07:30:00Z</time>
      </trkpt>
      <trkpt lat="48.76497" lon="2.16347">
        <ele>93.39</ele>
        <time>2015-06-14T07:30:29Z</time>
      </trkpt>
      <trkpt lat="48.76503" lon="2.16347">
        <ele>93.39</ele>
        <time>2015-06-14T07:30:47Z</time>
      </trkpt>
      <trkpt lat="48.76502" lon="2.16346">
        <ele>93.39</ele>
        <time>2015-06-14T07:31:07Z</time>
      </trkpt>
      <trkpt lat="48.76504" lon="2.16349">
        <ele>93.39</ele>
        <time>2015-06-14T07:31:31Z</time>
      </trkpt>
      <trkpt lat="48.76503" lon="2.1635">
        <ele>93.87</ele>
        <time>2015-06-14T07:31:57Z</time>
      </trkpt>
      <trkpt lat="48.76504" lon="2.16344">
        <ele>93.87</ele>
        <time>2015-06-14T07:32:18Z</time>
      </trkpt>
      <trkpt lat="48.76503" lon="2.16342">
        <ele>93.87</ele>
        <time>2015-06-14T07:32:29Z</time>
      </trkpt>
      <trkpt lat="48.76504" lon="2.16339">
        <ele>93.39</ele>
        <time>2015-06-14T07:32:44Z</time>
      </trkpt>
      <trkpt lat="48.76504" lon="2.1634">
        <ele>93.39</ele>
        <time>2015-06-14T07:32:58Z</time>
      </trkpt>
      <trkpt lat="48.76506" lon="2.16335">
        <ele>93.87</ele>
        <time>2015-06-14T07:33:08Z</time>
      </trkpt>
      <trkpt lat="48.76509" lon="2.16313">
        <ele>93.39</ele>
        <time>2015-06-14T07:33:19Z</time>
      </trkpt>
      <trkpt lat="48.76514" lon="2.16306">
        <ele>93.39</ele>
        <time>2015-06-14T07:33:24Z</time>
      </trkpt>
      <trkpt lat="48.76517" lon="2.16298">
        <ele>93.39</ele>
        <time>2015-06-14T07:33:29Z</time>
      </trkpt>
      <trkpt lat="48.76517" lon="2.16295">
        <ele>93.39</ele>
        <time>2015-06-14T07:33:31Z</time>
      </trkpt>
      <trkpt lat="48.76517" lon="2.16276">
        <ele>93.39</ele>
        <time>2015-06-14T07:33:44Z</time>
      </trkpt>
      <trkpt lat="48.76517" lon="2.16263">
        <ele>93.87</ele>
        <time>2015-06-14T07:33:53Z</time>
      </trkpt>
      <trkpt lat="48.76517" lon="2.16238">
        <ele>93.87</ele>
        <time>2015-06-14T07:34:09Z</time>
      </trkpt>
      <trkpt lat="48.76517" lon="2.16206">
        <ele>93.87</ele>
        <time>2015-06-14T07:34:29Z</time>
      </trkpt>
      <trkpt lat="48.7652" lon="2.16204">
        <ele>93.87</ele>
        <time>2015-06-14T07:34:34Z</time>
      </trkpt>
      <trkpt lat="48.76526" lon="2.16194">
        <ele>93.87</ele>
        <time>2015-06-14T07:34:48Z</time>
      </trkpt>
      <trkpt lat="48.76525" lon="2.16193">
        <ele>93.87</ele>
        <time>2015-06-14T07:34:50Z</time>
      </trkpt>
      <trkpt lat="48.76526" lon="2.16172">
        <ele>93.87</ele>
        <time>2015-06-14T07:35:04Z</time>
      </trkpt>
      <trkpt lat="48.76524" lon="2.1614">
        <ele>93.39</ele>
        <time>2015-06-14T07:35:21Z</time>
      </trkpt>
      <trkpt lat="48.76525" lon="2.16111">
        <ele>93.87</ele>
        <time>2015-06-14T07:35:38Z</time>
      </trkpt>
      <trkpt lat="48.76524" lon="2.16085">
        <ele>93.87</ele>
        <time>2015-06-14T07:35:55Z</time>
      </trkpt>
      <trkpt lat="48.76532" lon="2.16068">
        <ele>93.39</ele>
        <time>2015-06-14T07:36:08Z</time>
      </trkpt>
      <trkpt lat="48.76533" lon="2.16066">
        <ele>93.39</ele>
        <time>2015-06-14T07:36:09Z</time>
      </trkpt>
      <trkpt lat="48.76537" lon="2.16064">
        <ele>93.39</ele>
        <time>2015-06-14T07:36:13Z</time>
      </trkpt>
      <trkpt lat="48.76542" lon="2.16057">
        <ele>93.39</ele>
        <time>2015-06-14T07:36:27Z</time>
      </trkpt>
      <trkpt lat="48.76541" lon="2.16055">
        <ele>93.87</ele>
        <time>2015-06-14T07:36:31Z</time>
      </trkpt>
      <trkpt lat="48.76537" lon="2.16037">
        <ele>93.39</ele>
        <time>2015-06-14T07:36:46Z</time>
      </trkpt>
      <trkpt lat="48.76527" lon="2.16015">
        <ele>92.9</ele>
        <time>2015-06-14T07:37:01Z</time>
      </trkpt>
      <trkpt lat="48.76526" lon="2.16013">
        <ele>92.9</ele>
        <time>2015-06-14T07:37:02Z</time>
      </trkpt>
      <trkpt lat="48.76516" lon="2.15987">
        <ele>92.9</ele>
        <time>2015-06-14T07:37:20Z</time>
      </trkpt>
      <trkpt lat="48.76525" lon="2.15967">
        <ele>92.9</ele>
        <time>2015-06-14T07:37:36Z</time>
      </trkpt>
      <trkpt lat="48.76542" lon="2.15943">
        <ele>92.42</ele>
        <time>2015-06-14T07:37:56Z</time>
      </trkpt>
      <trkpt lat="48.76555" lon="2.15923">
        <ele>91.94</ele>
        <time>2015-06-14T07:38:13Z</time>
      </trkpt>
      <trkpt lat="48.76567" lon="2.15903">
        <ele>92.42</ele>
        <time>2015-06-14T07:38:27Z</time>
      </trkpt>
      <trkpt lat="48.76569" lon="2.15901">
        <ele>92.42</ele>
        <time>2015-06-14T07:38:29Z</time>
      </trkpt>
      <trkpt lat="48.76581" lon="2.15904">
        <ele>92.9</ele>
        <time>2015-06-14T07:38:44Z</time>
      </trkpt>
      <trkpt lat="48.76591" lon="2.15927">
        <ele>91.94</ele>
        <time>2015-06-14T07:39:01Z</time>
      </trkpt>
      <trkpt lat="48.76603" lon="2.15924">
        <ele>92.42</ele>
        <time>2015-06-14T07:39:15Z</time>
      </trkpt>
      <trkpt lat="48.76611" lon="2.15915">
        <ele>92.9</ele>
        <time>2015-06-14T07:39:24Z</time>
      </trkpt>
      <trkpt lat="48.76631" lon="2.15895">
        <ele>92.42</ele>
        <time>2015-06-14T07:39:45Z</time>
      </trkpt>
      <trkpt lat="48.76643" lon="2.1588">
        <ele>92.42</ele>
        <time>2015-06-14T07:40:00Z</time>
      </trkpt>
      <trkpt lat="48.76654" lon="2.15867">
        <ele>92.42</ele>
        <time>2015-06-14T07:40:12Z</time>
      </trkpt>
      <trkpt lat="48.76663" lon="2.15849">
        <ele>92.42</ele>
        <time>2015-06-14T07:40:25Z</time>
      </trkpt>
      <trkpt lat="48.7667" lon="2.1583">
        <ele>92.42</ele>
        <time>2015-06-14T07:40:40Z</time>
      </trkpt>
      <trkpt lat="48.76685" lon="2.15804">
        <ele>92.42</ele>
        <time>2015-06-14T07:40:59Z</time>
      </trkpt>
      <trkpt lat="48.76696" lon="2.15777">
        <ele>92.9</ele>
        <time>2015-06-14T07:41:16Z</time>
      </trkpt>
      <trkpt lat="48.76698" lon="2.15751">
        <ele>92.9</ele>
        <time>2015-06-14T07:41:33Z</time>
      </trkpt>
      <trkpt lat="48.76702" lon="2.15728">
        <ele>92.9</ele>
        <time>2015-06-14T07:41:49Z</time>
      </trkpt>
      <trkpt lat="48.76703" lon="2.15709">
        <ele>93.39</ele>
        <time>2015-06-14T07:42:02Z</time>
      </trkpt>
      <trkpt lat="48.76704" lon="2.15663">
        <ele>93.39</ele>
        <time>2015-06-14T07:42:26Z</time>
      </trkpt>
      <trkpt lat="48.76703" lon="2.15635">
        <ele>94.35</ele>
        <time>2015-06-14T07:42:44Z</time>
      </trkpt>
      <trkpt lat="48.76708" lon="2.15612">
        <ele>95.31</ele>
        <time>2015-06-14T07:43:02Z</time>
      </trkpt>
      <trkpt lat="48.76715" lon="2.15589">
        <ele>96.75</ele>
        <time>2015-06-14T07:43:19Z</time>
      </trkpt>
      <trkpt lat="48.76713" lon="2.15577">
        <ele>97.71</ele>
        <time>2015-06-14T07:43:31Z</time>
      </trkpt>
      <trkpt lat="48.76709" lon="2.15565">
        <ele>98.67</ele>
        <time>2015-06-14T07:43:48Z</time>
      </trkpt>
      <trkpt lat="48.76701" lon="2.15557">
        <ele>98.19</ele>
        <time>2015-06-14T07:44:03Z</time>
      </trkpt>
      <trkpt lat="48.76702" lon="2.15555">
        <ele>98.67</ele>
        <time>2015-06-14T07:44:07Z</time>
      </trkpt>
      <trkpt lat="48.767" lon="2.15551">
        <ele>98.67</ele>
        <time>2015-06-14T07:44:22Z</time>
      </trkpt>
      <trkpt lat="48.76686" lon="2.15547">
        <ele>99.15</ele>
        <time>2015-06-14T07:44:39Z</time>
      </trkpt>
      <trkpt lat="48.7667" lon="2.15545">
        <ele>99.15</ele>
        <time>2015-06-14T07:44:53Z</time>
      </trkpt>
      <trkpt lat="48.76654" lon="2.15518">
        <ele>99.15</ele>
        <time>2015-06-14T07:45:11Z</time>
      </trkpt>
      <trkpt lat="48.7665" lon="2.15497">
        <ele>99.63</ele>
        <time>2015-06-14T07:45:29Z</time>
      </trkpt>
      <trkpt lat="48.76651" lon="2.1549">
        <ele>99.63</ele>
        <time>2015-06-14T07:45:36Z</time>
      </trkpt>
      <trkpt lat="48.76654" lon="2.15455">
        <ele>99.63</ele>
        <time>2015-06-14T07:45:52Z</time>
      </trkpt>
      <trkpt lat="48.76654" lon="2.15454">
        <ele>100.11</ele>
        <time>2015-06-14T07:45:53Z</time>
      </trkpt>
      <trkpt lat="48.76655" lon="2.1545">
        <ele>100.11</ele>
        <time>2015-06-14T07:45:56Z</time>
      </trkpt>
      <trkpt lat="48.76661" lon="2.15433">
        <ele>99.63</ele>
        <time>2015-06-14T07:46:13Z</time>
      </trkpt>
      <trkpt lat="48.76664" lon="2.15425">
        <ele>99.63</ele>
        <time>2015-06-14T07:46:22Z</time>
      </trkpt>
      <trkpt lat="48.76678" lon="2.15408">
        <ele>99.15</ele>
        <time>2015-06-14T07:46:38Z</time>
      </trkpt>
      <trkpt lat="48.7669" lon="2.15384">
        <ele>98.19</ele>
        <time>2015-06-14T07:46:55Z</time>
      </trkpt>
      <trkpt lat="48.76701" lon="2.15361">
        <ele>98.67</ele>
        <time>2015-06-14T07:47:12Z</time>
      </trkpt>
      <trkpt lat="48.76707" lon="2.15344">
        <ele>98.19</ele>
        <time>2015-06-14T07:47:27Z</time>
      </trkpt>
      <trkpt lat="48.76708" lon="2.15342">
        <ele>98.67</ele>
        <time>2015-06-14T07:47:29Z</time>
      </trkpt>
      <trkpt lat="48.76714" lon="2.15316">
        <ele>98.19</ele>
        <time>2015-06-14T07:47:45Z</time>
      </trkpt>
      <trkpt lat="48.76714" lon="2.15315">
        <ele>98.67</ele>
        <time>2015-06-14T07:47:46Z</time>
      </trkpt>
      <trkpt lat="48.76715" lon="2.15306">
        <ele>97.71</ele>
        <time>2015-06-14T07:47:52Z</time>
      </trkpt>
      <trkpt lat="48.7672" lon="2.1529">
        <ele>98.67</ele>
        <time>2015-06-14T07:48:04Z</time>
      </trkpt>
      <trkpt lat="48.76721" lon="2.15285">
        <ele>98.67</ele>
        <time>2015-06-14T07:48:07Z</time>
      </trkpt>
      <trkpt lat="48.76723" lon="2.15264">
        <ele>98.67</ele>
        <time>2015-06-14T07:48:22Z</time>
      </trkpt>
      <trkpt lat="48.76727" lon="2.15239">
        <ele>98.19</ele>
        <time>2015-06-14T07:48:40Z</time>
      </trkpt>
      <trkpt lat="48.76731" lon="2.1523">
        <ele>98.19</ele>
        <time>2015-06-14T07:48:47Z</time>
      </trkpt>
      <trkpt lat="48.7674" lon="2.15214">
        <ele>98.19</ele>
        <time>2015-06-14T07:49:02Z</time>
      </trkpt>
      <trkpt lat="48.76754" lon="2.15202">
        <ele>98.19</ele>
        <time>2015-06-14T07:49:16Z</time>
      </trkpt>
      <trkpt lat="48.76755" lon="2.15187">
        <ele>98.19</ele>
        <time>2015-06-14T07:49:31Z</time>
      </trkpt>
      <trkpt lat="48.76751" lon="2.15162">
        <ele>98.19</ele>
        <time>2015-06-14T07:49:46Z</time>
      </trkpt>
      <trkpt lat="48.76754" lon="2.15148">
        <ele>98.19</ele>
        <time>2015-06-14T07:49:59Z</time>
      </trkpt>
      <trkpt lat="48.76757" lon="2.15134">
        <ele>97.71</ele>
        <time>2015-06-14T07:50:15Z</time>
      </trkpt>
      <trkpt lat="48.76757" lon="2.1514">
        <ele>98.19</ele>
        <time>2015-06-14T07:50:33Z</time>
      </trkpt>
      <trkpt lat="48.76756" lon="2.15135">
        <ele>97.71</ele>
        <time>2015-06-14T07:50:51Z</time>
      </trkpt>
      <trkpt lat="48.76755" lon="2.15134">
        <ele>98.19</ele>
        <time>2015-06-14T07:51:08Z</time>
      </trkpt>
      <trkpt lat="48.76755" lon="2.15137">
        <ele>98.19</ele>
        <time>2015-06-14T07:51:28Z</time>
      </trkpt>
      <trkpt lat="48.76753" lon="2.15146">
        <ele>98.19</ele>
        <time>2015-06-14T07:51:53Z</time>
      </trkpt>
      <trkpt lat="48.76755" lon="2.15123">
        <ele>98.19</ele>
        <time>2015-06-14T07:52:13Z</time>
      </trkpt>
      <trkpt lat="48.76757" lon="2.15092">
        <ele>98.19</ele>
        <time>2015-06-14T07:52:30Z</time>
      </trkpt>
      <trkpt lat="48.76762" lon="2.15068">
        <ele>98.67</ele>
        <time>2015-06-14T07:52:48Z</time>
      </trkpt>
      <trkpt lat="48.76771" lon="2.15072">
        <ele>98.19</ele>
        <time>2015-06-14T07:53:01Z</time>
      </trkpt>
      <trkpt lat="48.76783" lon="2.15079">
        <ele>97.23</ele>
        <time>2015-06-14T07:53:16Z</time>
      </trkpt>
      <trkpt lat="48.76799" lon="2.15087">
        <ele>96.75</ele>
        <time>2015-06-14T07:53:33Z</time>
      </trkpt>
      <trkpt lat="48.76814" lon="2.15095">
        <ele>96.75</ele>
        <time>2015-06-14T07:53:49Z</time>
      </trkpt>
      <trkpt lat="48.76825" lon="2.15104">
        <ele>96.75</ele>
        <time>2015-06-14T07:54:03Z</time>
      </trkpt>
      <trkpt lat="48.76837" lon="2.15116">
        <ele>96.27</ele>
        <time>2015-06-14T07:54:18Z</time>
      </trkpt>
      <trkpt lat="48.76838" lon="2.15117">
        <ele>96.27</ele>
        <time>2015-06-14T07:54:19Z</time>
      </trkpt>
      <trkpt lat="48.76857" lon="2.15125">
        <ele>96.75</ele>
        <time>2015-06-14T07:54:38Z</time>
      </trkpt>
      <trkpt lat="48.76875" lon="2.15136">
        <ele>97.71</ele>
        <time>2015-06-14T07:54:57Z</time>
      </trkpt>
      <trkpt lat="48.7689" lon="2.15142">
        <ele>100.6</ele>
        <time>2015-06-14T07:55:12Z</time>
      </trkpt>
      <trkpt lat="48.76893" lon="2.1513">
        <ele>101.08</ele>
        <time>2015-06-14T07:55:25Z</time>
      </trkpt>
      <trkpt lat="48.76893" lon="2.15128">
        <ele>101.08</ele>
        <time>2015-06-14T07:55:36Z</time>
      </trkpt>
      <trkpt lat="48.76893" lon="2.15125">
        <ele>100.6</ele>
        <time>2015-06-14T07:55:42Z</time>
      </trkpt>
      <trkpt lat="48.76894" lon="2.15115">
        <ele>100.6</ele>
        <time>2015-06-14T07:55:47Z</time>
      </trkpt>
      <trkpt lat="48.76895" lon="2.15091">
        <ele>101.08</ele>
        <time>2015-06-14T07:56:03Z</time>
      </trkpt>
      <trkpt lat="48.76899" lon="2.15076">
        <ele>101.56</ele>
        <time>2015-06-14T07:56:14Z</time>
      </trkpt>
      <trkpt lat="48.76908" lon="2.15057">
        <ele>101.08</ele>
        <time>2015-06-14T07:56:28Z</time>
      </trkpt>
      <trkpt lat="48.76912" lon="2.15043">
        <ele>101.56</ele>
        <time>2015-06-14T07:56:38Z</time>
      </trkpt>
      <trkpt lat="48.76916" lon="2.15034">
        <ele>101.56</ele>
        <time>2015-06-14T07:56:43Z</time>
      </trkpt>
      <trkpt lat="48.76925" lon="2.15018">
        <ele>102.04</ele>
        <time>2015-06-14T07:56:56Z</time>
      </trkpt>
      <trkpt lat="48.76933" lon="2.14997">
        <ele>102.04</ele>
        <time>2015-06-14T07:57:11Z</time>
      </trkpt>
      <trkpt lat="48.76943" lon="2.14976">
        <ele>102.04</ele>
        <time>2015-06-14T07:57:25Z</time>
      </trkpt>
      <trkpt lat="48.76957" lon="2.14955">
        <ele>102.04</ele>
        <time>2015-06-14T07:57:40Z</time>
      </trkpt>
      <trkpt lat="48.76961" lon="2.14937">
        <ele>102.04</ele>
        <time>2015-06-14T07:57:52Z</time>
      </trkpt>
      <trkpt lat="48.76965" lon="2.14928">
        <ele>102.04</ele>
        <time>2015-06-14T07:57:58Z</time>
      </trkpt>
      <trkpt lat="48.7697" lon="2.14917">
        <ele>101.56</ele>
        <time>2015-06-14T07:58:07Z</time>
      </trkpt>
      <trkpt lat="48.76974" lon="2.14905">
        <ele>102.04</ele>
        <time>2015-06-14T07:58:15Z</time>
      </trkpt>
      <trkpt lat="48.76975" lon="2.14879">
        <ele>102.04</ele>
        <time>2015-06-14T07:58:33Z</time>
      </trkpt>
      <trkpt lat="48.76981" lon="2.14864">
        <ele>102.04</ele>
        <time>2015-06-14T07:58:46Z</time>
      </trkpt>
      <trkpt lat="48.7699" lon="2.14845">
        <ele>102.04</ele>
        <time>2015-06-14T07:59:01Z</time>
      </trkpt>
      <trkpt lat="48.76992" lon="2.14843">
        <ele>102.04</ele>
        <time>2015-06-14T07:59:03Z</time>
      </trkpt>
      <trkpt lat="48.76996" lon="2.14833">
        <ele>102.52</ele>
        <time>2015-06-14T07:59:11Z</time>
      </trkpt>
      <trkpt lat="48.77009" lon="2.14817">
        <ele>103</ele>
        <time>2015-06-14T07:59:26Z</time>
      </trkpt>
      <trkpt lat="48.7702" lon="2.14795">
        <ele>103.48</ele>
        <time>2015-06-14T07:59:44Z</time>
      </trkpt>
      <trkpt lat="48.77026" lon="2.14781">
        <ele>103.48</ele>
        <time>2015-06-14T07:59:57Z</time>
      </trkpt>
      <trkpt lat="48.77038" lon="2.14766">
        <ele>103.96</ele>
        <time>2015-06-14T08:00:15Z</time>
      </trkpt>
      <trkpt lat="48.77054" lon="2.14753">
        <ele>104.92</ele>
        <time>2015-06-14T08:00:32Z</time>
      </trkpt>
      <trkpt lat="48.77067" lon="2.14738">
        <ele>105.4</ele>
        <time>2015-06-14T08:00:48Z</time>
      </trkpt>
      <trkpt lat="48.77077" lon="2.14732">
        <ele>105.4</ele>
        <time>2015-06-14T08:01:01Z</time>
      </trkpt>
      <trkpt lat="48.7709" lon="2.14715">
        <ele>105.4</ele>
        <time>2015-06-14T08:01:16Z</time>
      </trkpt>
      <trkpt lat="48.77093" lon="2.1471">
        <ele>105.4</ele>
        <time>2015-06-14T08:01:22Z</time>
      </trkpt>
      <trkpt lat="48.77088" lon="2.14702">
        <ele>105.4</ele>
        <time>2015-06-14T08:01:35Z</time>
      </trkpt>
      <trkpt lat="48.77083" lon="2.14695">
        <ele>104.92</ele>
        <time>2015-06-14T08:01:47Z</time>
      </trkpt>
      <trkpt lat="48.77082" lon="2.14664">
        <ele>103.48</ele>
        <time>2015-06-14T08:02:01Z</time>
      </trkpt>
      <trkpt lat="48.77063" lon="2.14641">
        <ele>102.52</ele>
        <time>2015-06-14T08:02:19Z</time>
      </trkpt>
      <trkpt lat="48.77049" lon="2.14628">
        <ele>101.56</ele>
        <time>2015-06-14T08:02:36Z</time>
      </trkpt>
      <trkpt lat="48.77041" lon="2.14617">
        <ele>101.08</ele>
        <time>2015-06-14T08:02:49Z</time>
      </trkpt>
      <trkpt lat="48.77041" lon="2.14615">
        <ele>101.08</ele>
        <time>2015-06-14T08:02:50Z</time>
      </trkpt>
      <trkpt lat="48.77038" lon="2.14606">
        <ele>101.08</ele>
        <time>2015-06-14T08:02:56Z</time>
      </trkpt>
      <trkpt lat="48.77034" lon="2.14603">
        <ele>101.08</ele>
        <time>2015-06-14T08:03:00Z</time>
      </trkpt>
      <trkpt lat="48.77022" lon="2.14586">
        <ele>100.11</ele>
        <time>2015-06-14T08:03:15Z</time>
      </trkpt>
      <trkpt lat="48.77018" lon="2.14568">
        <ele>100.11</ele>
        <time>2015-06-14T08:03:28Z</time>
      </trkpt>
      <trkpt lat="48.77004" lon="2.14545">
        <ele>100.11</ele>
        <time>2015-06-14T08:03:45Z</time>
      </trkpt>
      <trkpt lat="48.77005" lon="2.14545">
        <ele>100.11</ele>
        <time>2015-06-14T08:03:59Z</time>
      </trkpt>
      <trkpt lat="48.77006" lon="2.14536">
        <ele>99.63</ele>
        <time>2015-06-14T08:04:13Z</time>
      </trkpt>
      <trkpt lat="48.77004" lon="2.14531">
        <ele>100.11</ele>
        <time>2015-06-14T08:04:19Z</time>
      </trkpt>
      <trkpt lat="48.76997" lon="2.14527">
        <ele>99.15</ele>
        <time>2015-06-14T08:04:25Z</time>
      </trkpt>
      <trkpt lat="48.76988" lon="2.14516">
        <ele>99.63</ele>
        <time>2015-06-14T08:04:36Z</time>
      </trkpt>
      <trkpt lat="48.76985" lon="2.14512">
        <ele>99.63</ele>
        <time>2015-06-14T08:04:40Z</time>
      </trkpt>
      <trkpt lat="48.76976" lon="2.145">
        <ele>99.63</ele>
        <time>2015-06-14T08:04:52Z</time>
      </trkpt>
      <trkpt lat="48.76978" lon="2.14495">
        <ele>99.63</ele>
        <time>2015-06-14T08:05:05Z</time>
      </trkpt>
      <trkpt lat="48.7698" lon="2.14487">
        <ele>99.63</ele>
        <time>2015-06-14T08:05:18Z</time>
      </trkpt>
      <trkpt lat="48.76985" lon="2.14468">
        <ele>99.63</ele>
        <time>2015-06-14T08:05:33Z</time>
      </trkpt>
      <trkpt lat="48.76994" lon="2.14445">
        <ele>99.15</ele>
        <time>2015-06-14T08:05:51Z</time>
      </trkpt>
      <trkpt lat="48.76996" lon="2.14427">
        <ele>98.67</ele>
        <time>2015-06-14T08:06:04Z</time>
      </trkpt>
      <trkpt lat="48.76999" lon="2.14421">
        <ele>98.67</ele>
        <time>2015-06-14T08:06:12Z</time>
      </trkpt>
      <trkpt lat="48.77009" lon="2.14405">
        <ele>98.67</ele>
        <time>2015-06-14T08:06:26Z</time>
      </trkpt>
      <trkpt lat="48.77016" lon="2.14381">
        <ele>98.67</ele>
        <time>2015-06-14T08:06:45Z</time>
      </trkpt>
      <trkpt lat="48.77022" lon="2.14362">
        <ele>99.15</ele>
        <time>2015-06-14T08:06:55Z</time>
      </trkpt>
      <trkpt lat="48.77029" lon="2.14346">
        <ele>99.15</ele>
        <time>2015-06-14T08:07:09Z</time>
      </trkpt>
      <trkpt lat="48.77038" lon="2.14327">
        <ele>99.15</ele>
        <time>2015-06-14T08:07:24Z</time>
      </trkpt>
      <trkpt lat="48.77048" lon="2.14304">
        <ele>99.15</ele>
        <time>2015-06-14T08:07:42Z</time>
      </trkpt>
      <trkpt lat="48.77054" lon="2.14285">
        <ele>99.63</ele>
        <time>2015-06-14T08:07:58Z</time>
      </trkpt>
      <trkpt lat="48.77065" lon="2.14254">
        <ele>99.15</ele>
        <time>2015-06-14T08:08:21Z</time>
      </trkpt>
      <trkpt lat="48.77081" lon="2.14228">
        <ele>99.15</ele>
        <time>2015-06-14T08:08:44Z</time>
      </trkpt>
      <trkpt lat="48.77093" lon="2.14205">
        <ele>99.63</ele>
        <time>2015-06-14T08:09:04Z</time>
      </trkpt>
      <trkpt lat="48.77099" lon="2.14172">
        <ele>99.63</ele>
        <time>2015-06-14T08:09:25Z</time>
      </trkpt>
      <trkpt lat="48.77113" lon="2.14149">
        <ele>101.08</ele>
        <time>2015-06-14T08:09:48Z</time>
      </trkpt>
      <trkpt lat="48.77118" lon="2.14131">
        <ele>100.6</ele>
        <time>2015-06-14T08:10:02Z</time>
      </trkpt>
      <trkpt lat="48.77123" lon="2.14112">
        <ele>100.6</ele>
        <time>2015-06-14T08:10:18Z</time>
      </trkpt>
      <trkpt lat="48.77125" lon="2.14101">
        <ele>99.63</ele>
        <time>2015-06-14T08:10:32Z</time>
      </trkpt>
      <trkpt lat="48.77119" lon="2.14112">
        <ele>99.63</ele>
        <time>2015-06-14T08:10:49Z</time>
      </trkpt>
      <trkpt lat="48.77112" lon="2.14112">
        <ele>99.63</ele>
        <time>2015-06-14T08:11:05Z</time>
      </trkpt>
      <trkpt lat="48.77108" lon="2.14112">
        <ele>99.15</ele>
        <time>2015-06-14T08:11:11Z</time>
      </trkpt>
      <trkpt lat="48.77098" lon="2.14112">
        <ele>99.15</ele>
        <time>2015-06-14T08:11:19Z</time>
      </trkpt>
      <trkpt lat="48.77085" lon="2.14111">
        <ele>99.15</ele>
        <time>2015-06-14T08:11:33Z</time>
      </trkpt>
      <trkpt lat="48.77076" lon="2.14112">
        <ele>99.63</ele>
        <time>2015-06-14T08:11:48Z</time>
      </trkpt>
      <trkpt lat="48.77076" lon="2.1411">
        <ele>99.15</ele>
        <time>2015-06-14T08:11:51Z</time>
      </trkpt>
      <trkpt lat="48.77068" lon="2.14096">
        <ele>99.15</ele>
        <time>2015-06-14T08:12:05Z</time>
      </trkpt>
      <trkpt lat="48.77059" lon="2.14085">
        <ele>99.15</ele>
        <time>2015-06-14T08:12:15Z</time>
      </trkpt>
      <trkpt lat="48.77054" lon="2.14078">
        <ele>99.15</ele>
        <time>2015-06-14T08:12:22Z</time>
      </trkpt>
      <trkpt lat="48.77052" lon="2.14074">
        <ele>99.63</ele>
        <time>2015-06-14T08:12:25Z</time>
      </trkpt>
      <trkpt lat="48.77042" lon="2.1406">
        <ele>99.63</ele>
        <time>2015-06-14T08:12:38Z</time>
      </trkpt>
      <trkpt lat="48.77034" lon="2.14053">
        <ele>100.6</ele>
        <time>2015-06-14T08:12:51Z</time>
      </trkpt>
      <trkpt lat="48.77026" lon="2.14038">
        <ele>101.56</ele>
        <time>2015-06-14T08:13:03Z</time>
      </trkpt>
      <trkpt lat="48.7702" lon="2.14031">
        <ele>102.04</ele>
        <time>2015-06-14T08:13:12Z</time>
      </trkpt>
      <trkpt lat="48.77013" lon="2.14019">
        <ele>102.52</ele>
        <time>2015-06-14T08:13:23Z</time>
      </trkpt>
      <trkpt lat="48.77004" lon="2.14011">
        <ele>103</ele>
        <time>2015-06-14T08:13:34Z</time>
      </trkpt>
      <trkpt lat="48.76994" lon="2.13999">
        <ele>104.44</ele>
        <time>2015-06-14T08:13:47Z</time>
      </trkpt>
      <trkpt lat="48.76988" lon="2.13984">
        <ele>106.36</ele>
        <time>2015-06-14T08:14:03Z</time>
      </trkpt>
      <trkpt lat="48.76976" lon="2.13961">
        <ele>107.81</ele>
        <time>2015-06-14T08:14:24Z</time>
      </trkpt>
      <trkpt lat="48.76965" lon="2.13945">
        <ele>109.73</ele>
        <time>2015-06-14T08:14:41Z</time>
      </trkpt>
      <trkpt lat="48.76957" lon="2.13921">
        <ele>111.65</ele>
        <time>2015-06-14T08:15:02Z</time>
      </trkpt>
      <trkpt lat="48.76957" lon="2.13896">
        <ele>113.09</ele>
        <time>2015-06-14T08:15:22Z</time>
      </trkpt>
      <trkpt lat="48.76952" lon="2.13875">
        <ele>114.53</ele>
        <time>2015-06-14T08:15:36Z</time>
      </trkpt>
      <trkpt lat="48.76951" lon="2.13874">
        <ele>115.01</ele>
        <time>2015-06-14T08:15:54Z</time>
      </trkpt>
      <trkpt lat="48.76949" lon="2.1388">
        <ele>114.53</ele>
        <time>2015-06-14T08:16:19Z</time>
      </trkpt>
      <trkpt lat="48.76953" lon="2.1388">
        <ele>114.53</ele>
        <time>2015-06-14T08:16:35Z</time>
      </trkpt>
      <trkpt lat="48.76948" lon="2.13874">
        <ele>114.53</ele>
        <time>2015-06-14T08:16:55Z</time>
      </trkpt>
      <trkpt lat="48.7695" lon="2.1388">
        <ele>114.05</ele>
        <time>2015-06-14T08:17:19Z</time>
      </trkpt>
      <trkpt lat="48.76948" lon="2.13875">
        <ele>114.53</ele>
        <time>2015-06-14T08:17:45Z</time>
      </trkpt>
      <trkpt lat="48.7696" lon="2.13872">
        <ele>114.53</ele>
        <time>2015-06-14T08:18:11Z</time>
      </trkpt>
      <trkpt lat="48.76957" lon="2.13876">
        <ele>114.53</ele>
        <time>2015-06-14T08:18:39Z</time>
      </trkpt>
      <trkpt lat="48.76954" lon="2.13876">
        <ele>114.53</ele>
        <time>2015-06-14T08:19:04Z</time>
      </trkpt>
      <trkpt lat="48.76955" lon="2.13879">
        <ele>114.53</ele>
        <time>2015-06-14T08:19:24Z</time>
      </trkpt>
      <trkpt lat="48.76954" lon="2.13874">
        <ele>114.53</ele>
        <time>2015-06-14T08:19:46Z</time>
      </trkpt>
      <trkpt lat="48.76952" lon="2.13867">
        <ele>115.5</ele>
        <time>2015-06-14T08:20:02Z</time>
      </trkpt>
      <trkpt lat="48.76952" lon="2.13868">
        <ele>115.98</ele>
        <time>2015-06-14T08:20:24Z</time>
      </trkpt>
      <trkpt lat="48.76958" lon="2.13852">
        <ele>117.42</ele>
        <time>2015-06-14T08:20:44Z</time>
      </trkpt>
      <trkpt lat="48.76962" lon="2.1384">
        <ele>117.9</ele>
        <time>2015-06-14T08:21:03Z</time>
      </trkpt>
      <trkpt lat="48.7697" lon="2.13815">
        <ele>118.38</ele>
        <time>2015-06-14T08:21:20Z</time>
      </trkpt>
      <trkpt lat="48.76978" lon="2.1379">
        <ele>117.42</ele>
        <time>2015-06-14T08:21:37Z</time>
      </trkpt>
      <trkpt lat="48.76982" lon="2.13777">
        <ele>116.94</ele>
        <time>2015-06-14T08:21:52Z</time>
      </trkpt>
      <trkpt lat="48.76986" lon="2.1376">
        <ele>115.98</ele>
        <time>2015-06-14T08:22:07Z</time>
      </trkpt>
      <trkpt lat="48.76994" lon="2.13737">
        <ele>115.5</ele>
        <time>2015-06-14T08:22:24Z</time>
      </trkpt>
      <trkpt lat="48.77011" lon="2.13723">
        <ele>114.53</ele>
        <time>2015-06-14T08:22:46Z</time>
      </trkpt>
      <trkpt lat="48.77029" lon="2.13724">
        <ele>114.05</ele>
        <time>2015-06-14T08:23:01Z</time>
      </trkpt>
      <trkpt lat="48.77047" lon="2.1371">
        <ele>115.01</ele>
        <time>2015-06-14T08:23:19Z</time>
      </trkpt>
      <trkpt lat="48.77054" lon="2.13688">
        <ele>115.98</ele>
        <time>2015-06-14T08:23:36Z</time>
      </trkpt>
      <trkpt lat="48.77058" lon="2.13658">
        <ele>116.46</ele>
        <time>2015-06-14T08:23:57Z</time>
      </trkpt>
      <trkpt lat="48.77064" lon="2.13634">
        <ele>117.42</ele>
        <time>2015-06-14T08:24:12Z</time>
      </trkpt>
      <trkpt lat="48.77066" lon="2.13612">
        <ele>118.86</ele>
        <time>2015-06-14T08:24:29Z</time>
      </trkpt>
      <trkpt lat="48.77071" lon="2.13585">
        <ele>117.42</ele>
        <time>2015-06-14T08:24:46Z</time>
      </trkpt>
      <trkpt lat="48.77073" lon="2.13556">
        <ele>114.53</ele>
        <time>2015-06-14T08:25:05Z</time>
      </trkpt>
      <trkpt lat="48.7707" lon="2.13523">
        <ele>112.61</ele>
        <time>2015-06-14T08:25:27Z</time>
      </trkpt>
      <trkpt lat="48.77079" lon="2.13496">
        <ele>111.65</ele>
        <time>2015-06-14T08:25:47Z</time>
      </trkpt>
      <trkpt lat="48.77079" lon="2.13476">
        <ele>111.65</ele>
        <time>2015-06-14T08:26:01Z</time>
      </trkpt>
      <trkpt lat="48.77084" lon="2.13454">
        <ele>112.61</ele>
        <time>2015-06-14T08:26:19Z</time>
      </trkpt>
      <trkpt lat="48.77086" lon="2.13444">
        <ele>112.13</ele>
        <time>2015-06-14T08:26:42Z</time>
      </trkpt>
      <trkpt lat="48.77093" lon="2.13422">
        <ele>113.09</ele>
        <time>2015-06-14T08:27:03Z</time>
      </trkpt>
      <trkpt lat="48.77094" lon="2.13412">
        <ele>113.57</ele>
        <time>2015-06-14T08:27:08Z</time>
      </trkpt>
      <trkpt lat="48.77097" lon="2.1339">
        <ele>114.53</ele>
        <time>2015-06-14T08:27:23Z</time>
      </trkpt>
      <trkpt lat="48.77105" lon="2.13377">
        <ele>115.5</ele>
        <time>2015-06-14T08:27:38Z</time>
      </trkpt>
      <trkpt lat="48.77114" lon="2.13343">
        <ele>116.46</ele>
        <time>2015-06-14T08:27:59Z</time>
      </trkpt>
      <trkpt lat="48.77122" lon="2.13317">
        <ele>118.38</ele>
        <time>2015-06-14T08:28:14Z</time>
      </trkpt>
      <trkpt lat="48.77133" lon="2.13286">
        <ele>120.3</ele>
        <time>2015-06-14T08:28:35Z</time>
      </trkpt>
      <trkpt lat="48.77144" lon="2.13258">
        <ele>122.71</ele>
        <time>2015-06-14T08:28:58Z</time>
      </trkpt>
      <trkpt lat="48.77146" lon="2.13251">
        <ele>123.19</ele>
        <time>2015-06-14T08:29:16Z</time>
      </trkpt>
      <trkpt lat="48.77145" lon="2.13253">
        <ele>123.67</ele>
        <time>2015-06-14T08:29:35Z</time>
      </trkpt>
      <trkpt lat="48.77145" lon="2.13255">
        <ele>123.67</ele>
        <time>2015-06-14T08:29:58Z</time>
      </trkpt>
      <trkpt lat="48.77142" lon="2.13266">
        <ele>122.22</ele>
        <time>2015-06-14T08:30:12Z</time>
      </trkpt>
      <trkpt lat="48.77138" lon="2.13263">
        <ele>122.71</ele>
        <time>2015-06-14T08:30:35Z</time>
      </trkpt>
      <trkpt lat="48.77145" lon="2.13247">
        <ele>123.67</ele>
        <time>2015-06-14T08:30:51Z</time>
      </trkpt>
      <trkpt lat="48.77154" lon="2.13242">
        <ele>123.67</ele>
        <time>2015-06-14T08:31:21Z</time>
      </trkpt>
      <trkpt lat="48.77152" lon="2.13247">
        <ele>124.15</ele>
        <time>2015-06-14T08:31:51Z</time>
      </trkpt>
      <trkpt lat="48.77149" lon="2.13249">
        <ele>124.15</ele>
        <time>2015-06-14T08:32:21Z</time>
      </trkpt>
      <trkpt lat="48.77155" lon="2.1324">
        <ele>124.15</ele>
        <time>2015-06-14T08:32:50Z</time>
      </trkpt>
      <trkpt lat="48.77157" lon="2.13245">
        <ele>124.63</ele>
        <time>2015-06-14T08:33:19Z</time>
      </trkpt>
      <trkpt lat="48.77155" lon="2.13257">
        <ele>125.11</ele>
        <time>2015-06-14T08:33:48Z</time>
      </trkpt>
      <trkpt lat="48.77157" lon="2.13262">
        <ele>125.11</ele>
        <time>2015-06-14T08:34:15Z</time>
      </trkpt>
      <trkpt lat="48.77154" lon="2.13259">
        <ele>125.11</ele>
        <time>2015-06-14T08:34:44Z</time>
      </trkpt>
      <trkpt lat="48.77152" lon="2.13255">
        <ele>125.59</ele>
        <time>2015-06-14T08:35:08Z</time>
      </trkpt>
      <trkpt lat="48.7715" lon="2.13255">
        <ele>125.59</ele>
        <time>2015-06-14T08:35:30Z</time>
      </trkpt>
      <trkpt lat="48.77155" lon="2.13236">
        <ele>125.59</ele>
        <time>2015-06-14T08:35:47Z</time>
      </trkpt>
      <trkpt lat="48.77174" lon="2.13249">
        <ele>125.11</ele>
        <time>2015-06-14T08:35:59Z</time>
      </trkpt>
      <trkpt lat="48.7719" lon="2.13259">
        <ele>125.11</ele>
        <time>2015-06-14T08:36:16Z</time>
      </trkpt>
      <trkpt lat="48.77211" lon="2.13268">
        <ele>125.11</ele>
        <time>2015-06-14T08:36:36Z</time>
      </trkpt>
      <trkpt lat="48.77227" lon="2.13277">
        <ele>124.63</ele>
        <time>2015-06-14T08:36:55Z</time>
      </trkpt>
      <trkpt lat="48.77246" lon="2.13281">
        <ele>125.11</ele>
        <time>2015-06-14T08:37:13Z</time>
      </trkpt>
      <trkpt lat="48.77269" lon="2.13289">
        <ele>124.63</ele>
        <time>2015-06-14T08:37:33Z</time>
      </trkpt>
      <trkpt lat="48.77282" lon="2.13298">
        <ele>124.63</ele>
        <time>2015-06-14T08:37:50Z</time>
      </trkpt>
      <trkpt lat="48.77298" lon="2.13309">
        <ele>124.63</ele>
        <time>2015-06-14T08:38:10Z</time>
      </trkpt>
      <trkpt lat="48.77302" lon="2.13307">
        <ele>124.63</ele>
        <time>2015-06-14T08:38:15Z</time>
      </trkpt>
      <trkpt lat="48.77322" lon="2.13318">
        <ele>124.63</ele>
        <time>2015-06-14T08:38:33Z</time>
      </trkpt>
      <trkpt lat="48.77328" lon="2.13323">
        <ele>124.63</ele>
        <time>2015-06-14T08:38:39Z</time>
      </trkpt>
      <trkpt lat="48.77349" lon="2.13331">
        <ele>124.63</ele>
        <time>2015-06-14T08:38:58Z</time>
      </trkpt>
      <trkpt lat="48.7735" lon="2.13332">
        <ele>124.63</ele>
        <time>2015-06-14T08:38:59Z</time>
      </trkpt>
      <trkpt lat="48.77369" lon="2.13345">
        <ele>125.11</ele>
        <time>2015-06-14T08:39:18Z</time>
      </trkpt>
      <trkpt lat="48.77373" lon="2.13347">
        <ele>125.11</ele>
        <time>2015-06-14T08:39:21Z</time>
      </trkpt>
      <trkpt lat="48.77383" lon="2.13347">
        <ele>125.11</ele>
        <time>2015-06-14T08:39:31Z</time>
      </trkpt>
      <trkpt lat="48.77389" lon="2.13351">
        <ele>125.11</ele>
        <time>2015-06-14T08:39:36Z</time>
      </trkpt>
      <trkpt lat="48.77405" lon="2.13357">
        <ele>125.59</ele>
        <time>2015-06-14T08:39:52Z</time>
      </trkpt>
      <trkpt lat="48.77406" lon="2.13359">
        <ele>125.59</ele>
        <time>2015-06-14T08:39:54Z</time>
      </trkpt>
      <trkpt lat="48.77421" lon="2.13363">
        <ele>125.59</ele>
        <time>2015-06-14T08:40:11Z</time>
      </trkpt>
      <trkpt lat="48.77431" lon="2.13369">
        <ele>125.11</ele>
        <time>2015-06-14T08:40:21Z</time>
      </trkpt>
      <trkpt lat="48.7744" lon="2.13371">
        <ele>125.11</ele>
        <time>2015-06-14T08:40:28Z</time>
      </trkpt>
      <trkpt lat="48.77459" lon="2.13384">
        <ele>125.59</ele>
        <time>2015-06-14T08:40:48Z</time>
      </trkpt>
      <trkpt lat="48.7747" lon="2.13401">
        <ele>125.11</ele>
        <time>2015-06-14T08:41:04Z</time>
      </trkpt>
      <trkpt lat="48.77468" lon="2.13405">
        <ele>125.11</ele>
        <time>2015-06-14T08:41:19Z</time>
      </trkpt>
      <trkpt lat="48.77469" lon="2.13396">
        <ele>125.11</ele>
        <time>2015-06-14T08:41:36Z</time>
      </trkpt>
      <trkpt lat="48.77465" lon="2.13385">
        <ele>125.11</ele>
        <time>2015-06-14T08:41:54Z</time>
      </trkpt>
      <trkpt lat="48.77461" lon="2.13382">
        <ele>125.11</ele>
        <time>2015-06-14T08:42:16Z</time>
      </trkpt>
      <trkpt lat="48.77469" lon="2.13404">
        <ele>124.63</ele>
        <time>2015-06-14T08:42:33Z</time>
      </trkpt>
      <trkpt lat="48.77478" lon="2.13424">
        <ele>125.11</ele>
        <time>2015-06-14T08:42:47Z</time>
      </trkpt>
      <trkpt lat="48.77479" lon="2.13433">
        <ele>125.11</ele>
        <time>2015-06-14T08:42:54Z</time>
      </trkpt>
      <trkpt lat="48.77484" lon="2.13462">
        <ele>124.63</ele>
        <time>2015-06-14T08:43:09Z</time>
      </trkpt>
      <trkpt lat="48.7748" lon="2.13493">
        <ele>125.11</ele>
        <time>2015-06-14T08:43:25Z</time>
      </trkpt>
      <trkpt lat="48.7748" lon="2.13504">
        <ele>126.55</ele>
        <time>2015-06-14T08:43:40Z</time>
      </trkpt>
      <trkpt lat="48.7748" lon="2.13504">
        <ele>126.55</ele>
        <time>2015-06-14T08:43:45Z</time>
      </trkpt>
      <trkpt lat="48.77493" lon="2.13497">
        <ele>128.47</ele>
        <time>2015-06-14T08:43:59Z</time>
      </trkpt>
      <trkpt lat="48.77501" lon="2.13497">
        <ele>130.4</ele>
        <time>2015-06-14T08:44:11Z</time>
      </trkpt>
      <trkpt lat="48.77508" lon="2.13503">
        <ele>133.28</ele>
        <time>2015-06-14T08:44:29Z</time>
      </trkpt>
      <trkpt lat="48.77525" lon="2.13501">
        <ele>134.24</ele>
        <time>2015-06-14T08:44:46Z</time>
      </trkpt>
      <trkpt lat="48.77528" lon="2.13476">
        <ele>135.68</ele>
        <time>2015-06-14T08:45:04Z</time>
      </trkpt>
      <trkpt lat="48.77531" lon="2.13452">
        <ele>138.57</ele>
        <time>2015-06-14T08:45:22Z</time>
      </trkpt>
      <trkpt lat="48.77526" lon="2.13442">
        <ele>140.01</ele>
        <time>2015-06-14T08:45:36Z</time>
      </trkpt>
      <trkpt lat="48.77525" lon="2.13429">
        <ele>142.89</ele>
        <time>2015-06-14T08:45:51Z</time>
      </trkpt>
      <trkpt lat="48.77521" lon="2.13417">
        <ele>145.3</ele>
        <time>2015-06-14T08:46:06Z</time>
      </trkpt>
      <trkpt lat="48.77522" lon="2.13407">
        <ele>147.22</ele>
        <time>2015-06-14T08:46:19Z</time>
      </trkpt>
      <trkpt lat="48.7752" lon="2.13405">
        <ele>147.22</ele>
        <time>2015-06-14T08:46:39Z</time>
      </trkpt>
      <trkpt lat="48.77523" lon="2.13406">
        <ele>147.22</ele>
        <time>2015-06-14T08:47:00Z</time>
      </trkpt>
      <trkpt lat="48.77535" lon="2.13396">
        <ele>147.7</ele>
        <time>2015-06-14T08:47:22Z</time>
      </trkpt>
      <trkpt lat="48.77545" lon="2.13391">
        <ele>149.62</ele>
        <time>2015-06-14T08:47:43Z</time>
      </trkpt>
      <trkpt lat="48.77565" lon="2.13383">
        <ele>152.51</ele>
        <time>2015-06-14T08:48:06Z</time>
      </trkpt>
      <trkpt lat="48.77574" lon="2.13391">
        <ele>154.43</ele>
        <time>2015-06-14T08:48:21Z</time>
      </trkpt>
      <trkpt lat="48.77577" lon="2.13389">
        <ele>154.91</ele>
        <time>2015-06-14T08:48:34Z</time>
      </trkpt>
      <trkpt lat="48.77584" lon="2.13386">
        <ele>155.87</ele>
        <time>2015-06-14T08:48:47Z</time>
      </trkpt>
      <trkpt lat="48.77596" lon="2.13376">
        <ele>156.83</ele>
        <time>2015-06-14T08:49:02Z</time>
      </trkpt>
      <trkpt lat="48.77614" lon="2.13369">
        <ele>157.79</ele>
        <time>2015-06-14T08:49:18Z</time>
      </trkpt>
      <trkpt lat="48.77627" lon="2.1336">
        <ele>158.75</ele>
        <time>2015-06-14T08:49:32Z</time>
      </trkpt>
      <trkpt lat="48.77629" lon="2.13365">
        <ele>159.24</ele>
        <time>2015-06-14T08:49:45Z</time>
      </trkpt>
      <trkpt lat="48.77628" lon="2.13364">
        <ele>159.72</ele>
        <time>2015-06-14T08:50:01Z</time>
      </trkpt>
      <trkpt lat="48.77623" lon="2.13366">
        <ele>159.72</ele>
        <time>2015-06-14T08:50:22Z</time>
      </trkpt>
      <trkpt lat="48.77627" lon="2.13366">
        <ele>160.2</ele>
        <time>2015-06-14T08:50:46Z</time>
      </trkpt>
      <trkpt lat="48.77624" lon="2.13368">
        <ele>160.2</ele>
        <time>2015-06-14T08:51:09Z</time>
      </trkpt>
      <trkpt lat="48.77619" lon="2.13364">
        <ele>160.2</ele>
        <time>2015-06-14T08:51:34Z</time>
      </trkpt>
      <trkpt lat="48.77622" lon="2.13367">
        <ele>160.2</ele>
        <time>2015-06-14T08:51:56Z</time>
      </trkpt>
      <trkpt lat="48.77625" lon="2.13364">
        <ele>160.2</ele>
        <time>2015-06-14T08:52:21Z</time>
      </trkpt>
      <trkpt lat="48.77624" lon="2.13362">
        <ele>160.2</ele>
        <time>2015-06-14T08:52:44Z</time>
      </trkpt>
      <trkpt lat="48.77624" lon="2.13375">
        <ele>160.2</ele>
        <time>2015-06-14T08:53:06Z</time>
      </trkpt>
      <trkpt lat="48.77625" lon="2.13375">
        <ele>160.68</ele>
        <time>2015-06-14T08:53:22Z</time>
      </trkpt>
      <trkpt lat="48.77619" lon="2.13389">
        <ele>160.68</ele>
        <time>2015-06-14T08:53:36Z</time>
      </trkpt>
      <trkpt lat="48.7761" lon="2.13406">
        <ele>160.2</ele>
        <time>2015-06-14T08:53:52Z</time>
      </trkpt>
      <trkpt lat="48.7761" lon="2.13407">
        <ele>159.72</ele>
        <time>2015-06-14T08:53:53Z</time>
      </trkpt>
      <trkpt lat="48.77605" lon="2.13426">
        <ele>159.24</ele>
        <time>2015-06-14T08:54:09Z</time>
      </trkpt>
      <trkpt lat="48.77599" lon="2.1342">
        <ele>159.24</ele>
        <time>2015-06-14T08:54:25Z</time>
      </trkpt>
      <trkpt lat="48.77584" lon="2.13407">
        <ele>157.79</ele>
        <time>2015-06-14T08:54:39Z</time>
      </trkpt>
      <trkpt lat="48.77577" lon="2.13401">
        <ele>156.35</ele>
        <time>2015-06-14T08:54:51Z</time>
      </trkpt>
      <trkpt lat="48.77575" lon="2.134">
        <ele>156.35</ele>
        <time>2015-06-14T08:54:53Z</time>
      </trkpt>
      <trkpt lat="48.77564" lon="2.13407">
        <ele>155.39</ele>
        <time>2015-06-14T08:55:08Z</time>
      </trkpt>
      <trkpt lat="48.77556" lon="2.13432">
        <ele>154.91</ele>
        <time>2015-06-14T08:55:25Z</time>
      </trkpt>
      <trkpt lat="48.77554" lon="2.13456">
        <ele>154.91</ele>
        <time>2015-06-14T08:55:42Z</time>
      </trkpt>
      <trkpt lat="48.77556" lon="2.13463">
        <ele>154.43</ele>
        <time>2015-06-14T08:55:58Z</time>
      </trkpt>
      <trkpt lat="48.77561" lon="2.13487">
        <ele>153.95</ele>
        <time>2015-06-14T08:56:14Z</time>
      </trkpt>
      <trkpt lat="48.77566" lon="2.13507">
        <ele>152.99</ele>
        <time>2015-06-14T08:56:31Z</time>
      </trkpt>
      <trkpt lat="48.77566" lon="2.13502">
        <ele>152.99</ele>
        <time>2015-06-14T08:56:52Z</time>
      </trkpt>
      <trkpt lat="48.77562" lon="2.13508">
        <ele>152.99</ele>
        <time>2015-06-14T08:57:20Z</time>
      </trkpt>
      <trkpt lat="48.77563" lon="2.1351">
        <ele>152.99</ele>
        <time>2015-06-14T08:57:35Z</time>
      </trkpt>
      <trkpt lat="48.77565" lon="2.13509">
        <ele>152.99</ele>
        <time>2015-06-14T08:57:51Z</time>
      </trkpt>
      <trkpt lat="48.77571" lon="2.13529">
        <ele>153.47</ele>
        <time>2015-06-14T08:58:05Z</time>
      </trkpt>
      <trkpt lat="48.7757" lon="2.13553">
        <ele>154.91</ele>
        <time>2015-06-14T08:58:22Z</time>
      </trkpt>
      <trkpt lat="48.77562" lon="2.13566">
        <ele>155.39</ele>
        <time>2015-06-14T08:58:40Z</time>
      </trkpt>
      <trkpt lat="48.77555" lon="2.13583">
        <ele>154.43</ele>
        <time>2015-06-14T08:58:56Z</time>
      </trkpt>
      <trkpt lat="48.77549" lon="2.13598">
        <ele>154.43</ele>
        <time>2015-06-14T08:59:13Z</time>
      </trkpt>
      <trkpt lat="48.77545" lon="2.13626">
        <ele>154.91</ele>
        <time>2015-06-14T08:59:31Z</time>
      </trkpt>
      <trkpt lat="48.77541" lon="2.13643">
        <ele>155.39</ele>
        <time>2015-06-14T08:59:49Z</time>
      </trkpt>
      <trkpt lat="48.7753" lon="2.13646">
        <ele>155.39</ele>
        <time>2015-06-14T09:00:03Z</time>
      </trkpt>
      <trkpt lat="48.77517" lon="2.13661">
        <ele>154.43</ele>
        <time>2015-06-14T09:00:21Z</time>
      </trkpt>
      <trkpt lat="48.77508" lon="2.13677">
        <ele>154.43</ele>
        <time>2015-06-14T09:00:40Z</time>
      </trkpt>
      <trkpt lat="48.77498" lon="2.13693">
        <ele>153.47</ele>
        <time>2015-06-14T09:00:55Z</time>
      </trkpt>
      <trkpt lat="48.77495" lon="2.13719">
        <ele>153.47</ele>
        <time>2015-06-14T09:01:13Z</time>
      </trkpt>
      <trkpt lat="48.77489" lon="2.13737">
        <ele>153.47</ele>
        <time>2015-06-14T09:01:28Z</time>
      </trkpt>
      <trkpt lat="48.77494" lon="2.13758">
        <ele>153.47</ele>
        <time>2015-06-14T09:01:46Z</time>
      </trkpt>
      <trkpt lat="48.77503" lon="2.13778">
        <ele>154.43</ele>
        <time>2015-06-14T09:02:04Z</time>
      </trkpt>
      <trkpt lat="48.77513" lon="2.13807">
        <ele>154.43</ele>
        <time>2015-06-14T09:02:27Z</time>
      </trkpt>
      <trkpt lat="48.77513" lon="2.13821">
        <ele>153.95</ele>
        <time>2015-06-14T09:02:48Z</time>
      </trkpt>
      <trkpt lat="48.7751" lon="2.13858">
        <ele>154.43</ele>
        <time>2015-06-14T09:03:08Z</time>
      </trkpt>
      <trkpt lat="48.77514" lon="2.13889">
        <ele>154.91</ele>
        <time>2015-06-14T09:03:27Z</time>
      </trkpt>
      <trkpt lat="48.77512" lon="2.13904">
        <ele>155.39</ele>
        <time>2015-06-14T09:03:45Z</time>
      </trkpt>
      <trkpt lat="48.77509" lon="2.13897">
        <ele>154.91</ele>
        <time>2015-06-14T09:04:11Z</time>
      </trkpt>
      <trkpt lat="48.77509" lon="2.13895">
        <ele>154.91</ele>
        <time>2015-06-14T09:04:37Z</time>
      </trkpt>
      <trkpt lat="48.77497" lon="2.13911">
        <ele>154.91</ele>
        <time>2015-06-14T09:04:54Z</time>
      </trkpt>
      <trkpt lat="48.77493" lon="2.13915">
        <ele>154.43</ele>
        <time>2015-06-14T09:05:10Z</time>
      </trkpt>
      <trkpt lat="48.77477" lon="2.13931">
        <ele>154.43</ele>
        <time>2015-06-14T09:05:26Z</time>
      </trkpt>
      <trkpt lat="48.77468" lon="2.13936">
        <ele>153.95</ele>
        <time>2015-06-14T09:05:41Z</time>
      </trkpt>
      <trkpt lat="48.77456" lon="2.13947">
        <ele>153.47</ele>
        <time>2015-06-14T09:05:56Z</time>
      </trkpt>
      <trkpt lat="48.77441" lon="2.13957">
        <ele>152.51</ele>
        <time>2015-06-14T09:06:12Z</time>
      </trkpt>
      <trkpt lat="48.77426" lon="2.13964">
        <ele>151.06</ele>
        <time>2015-06-14T09:06:28Z</time>
      </trkpt>
      <trkpt lat="48.77412" lon="2.13968">
        <ele>150.58</ele>
        <time>2015-06-14T09:06:45Z</time>
      </trkpt>
      <trkpt lat="48.77404" lon="2.13974">
        <ele>150.1</ele>
        <time>2015-06-14T09:06:59Z</time>
      </trkpt>
      <trkpt lat="48.77399" lon="2.1397">
        <ele>150.1</ele>
        <time>2015-06-14T09:07:14Z</time>
      </trkpt>
      <trkpt lat="48.77389" lon="2.13968">
        <ele>148.66</ele>
        <time>2015-06-14T09:07:29Z</time>
      </trkpt>
      <trkpt lat="48.77376" lon="2.13971">
        <ele>147.22</ele>
        <time>2015-06-14T09:07:45Z</time>
      </trkpt>
      <trkpt lat="48.77364" lon="2.13983">
        <ele>144.34</ele>
        <time>2015-06-14T09:08:00Z</time>
      </trkpt>
      <trkpt lat="48.77352" lon="2.13998">
        <ele>141.93</ele>
        <time>2015-06-14T09:08:15Z</time>
      </trkpt>
      <trkpt lat="48.77347" lon="2.14021">
        <ele>139.53</ele>
        <time>2015-06-14T09:08:33Z</time>
      </trkpt>
      <trkpt lat="48.77352" lon="2.14029">
        <ele>137.13</ele>
        <time>2015-06-14T09:08:50Z</time>
      </trkpt>
      <trkpt lat="48.7734" lon="2.14051">
        <ele>134.72</ele>
        <time>2015-06-14T09:09:09Z</time>
      </trkpt>
      <trkpt lat="48.77332" lon="2.14068">
        <ele>132.32</ele>
        <time>2015-06-14T09:09:22Z</time>
      </trkpt>
      <trkpt lat="48.77323" lon="2.14082">
        <ele>129.92</ele>
        <time>2015-06-14T09:09:37Z</time>
      </trkpt>
      <trkpt lat="48.77318" lon="2.14091">
        <ele>127.51</ele>
        <time>2015-06-14T09:09:54Z</time>
      </trkpt>
      <trkpt lat="48.77308" lon="2.14087">
        <ele>125.59</ele>
        <time>2015-06-14T09:10:09Z</time>
      </trkpt>
      <trkpt lat="48.77294" lon="2.14087">
        <ele>124.15</ele>
        <time>2015-06-14T09:10:23Z</time>
      </trkpt>
      <trkpt lat="48.7728" lon="2.14083">
        <ele>122.22</ele>
        <time>2015-06-14T09:10:39Z</time>
      </trkpt>
      <trkpt lat="48.77269" lon="2.1408">
        <ele>120.78</ele>
        <time>2015-06-14T09:11:01Z</time>
      </trkpt>
      <trkpt lat="48.77248" lon="2.14083">
        <ele>118.38</ele>
        <time>2015-06-14T09:11:19Z</time>
      </trkpt>
      <trkpt lat="48.7723" lon="2.14085">
        <ele>115.5</ele>
        <time>2015-06-14T09:11:39Z</time>
      </trkpt>
      <trkpt lat="48.77221" lon="2.14088">
        <ele>113.57</ele>
        <time>2015-06-14T09:11:57Z</time>
      </trkpt>
      <trkpt lat="48.77208" lon="2.14089">
        <ele>110.69</ele>
        <time>2015-06-14T09:12:13Z</time>
      </trkpt>
      <trkpt lat="48.77193" lon="2.14094">
        <ele>107.81</ele>
        <time>2015-06-14T09:12:31Z</time>
      </trkpt>
      <trkpt lat="48.77177" lon="2.14117">
        <ele>106.36</ele>
        <time>2015-06-14T09:12:50Z</time>
      </trkpt>
      <trkpt lat="48.77163" lon="2.14128">
        <ele>106.84</ele>
        <time>2015-06-14T09:13:06Z</time>
      </trkpt>
      <trkpt lat="48.77162" lon="2.14131">
        <ele>106.84</ele>
        <time>2015-06-14T09:13:31Z</time>
      </trkpt>
      <trkpt lat="48.77176" lon="2.14137">
        <ele>106.84</ele>
        <time>2015-06-14T09:13:57Z</time>
      </trkpt>
      <trkpt lat="48.77162" lon="2.14142">
        <ele>107.32</ele>
        <time>2015-06-14T09:14:24Z</time>
      </trkpt>
      <trkpt lat="48.7715" lon="2.1416">
        <ele>110.21</ele>
        <time>2015-06-14T09:14:43Z</time>
      </trkpt>
      <trkpt lat="48.77148" lon="2.14183">
        <ele>111.65</ele>
        <time>2015-06-14T09:15:01Z</time>
      </trkpt>
      <trkpt lat="48.77144" lon="2.14198">
        <ele>112.61</ele>
        <time>2015-06-14T09:15:16Z</time>
      </trkpt>
      <trkpt lat="48.77133" lon="2.14226">
        <ele>112.61</ele>
        <time>2015-06-14T09:15:34Z</time>
      </trkpt>
      <trkpt lat="48.77132" lon="2.1424">
        <ele>113.09</ele>
        <time>2015-06-14T09:15:47Z</time>
      </trkpt>
      <trkpt lat="48.77121" lon="2.14264">
        <ele>114.05</ele>
        <time>2015-06-14T09:16:03Z</time>
      </trkpt>
      <trkpt lat="48.77115" lon="2.14284">
        <ele>112.13</ele>
        <time>2015-06-14T09:16:21Z</time>
      </trkpt>
      <trkpt lat="48.77109" lon="2.14311">
        <ele>109.73</ele>
        <time>2015-06-14T09:16:37Z</time>
      </trkpt>
      <trkpt lat="48.77107" lon="2.14329">
        <ele>109.25</ele>
        <time>2015-06-14T09:16:54Z</time>
      </trkpt>
      <trkpt lat="48.77103" lon="2.14361">
        <ele>110.69</ele>
        <time>2015-06-14T09:17:11Z</time>
      </trkpt>
      <trkpt lat="48.77095" lon="2.1438">
        <ele>111.17</ele>
        <time>2015-06-14T09:17:31Z</time>
      </trkpt>
      <trkpt lat="48.77084" lon="2.14399">
        <ele>112.61</ele>
        <time>2015-06-14T09:17:48Z</time>
      </trkpt>
      <trkpt lat="48.77077" lon="2.14431">
        <ele>113.09</ele>
        <time>2015-06-14T09:18:08Z</time>
      </trkpt>
      <trkpt lat="48.77077" lon="2.14453">
        <ele>114.05</ele>
        <time>2015-06-14T09:18:23Z</time>
      </trkpt>
      <trkpt lat="48.77075" lon="2.14468">
        <ele>115.01</ele>
        <time>2015-06-14T09:18:38Z</time>
      </trkpt>
      <trkpt lat="48.77072" lon="2.14494">
        <ele>115.5</ele>
        <time>2015-06-14T09:18:54Z</time>
      </trkpt>
      <trkpt lat="48.77071" lon="2.14519">
        <ele>113.57</ele>
        <time>2015-06-14T09:19:11Z</time>
      </trkpt>
      <trkpt lat="48.7707" lon="2.14539">
        <ele>111.17</ele>
        <time>2015-06-14T09:19:28Z</time>
      </trkpt>
      <trkpt lat="48.77067" lon="2.1457">
        <ele>110.21</ele>
        <time>2015-06-14T09:19:45Z</time>
      </trkpt>
      <trkpt lat="48.77064" lon="2.14589">
        <ele>109.73</ele>
        <time>2015-06-14T09:20:00Z</time>
      </trkpt>
      <trkpt lat="48.77065" lon="2.14608">
        <ele>106.84</ele>
        <time>2015-06-14T09:20:19Z</time>
      </trkpt>
      <trkpt lat="48.77063" lon="2.14628">
        <ele>104.92</ele>
        <time>2015-06-14T09:20:34Z</time>
      </trkpt>
      <trkpt lat="48.77063" lon="2.14636">
        <ele>104.92</ele>
        <time>2015-06-14T09:20:46Z</time>
      </trkpt>
      <trkpt lat="48.77062" lon="2.14646">
        <ele>103.96</ele>
        <time>2015-06-14T09:21:00Z</time>
      </trkpt>
      <trkpt lat="48.77067" lon="2.14652">
        <ele>104.44</ele>
        <time>2015-06-14T09:21:14Z</time>
      </trkpt>
      <trkpt lat="48.77069" lon="2.14656">
        <ele>104.44</ele>
        <time>2015-06-14T09:21:31Z</time>
      </trkpt>
      <trkpt lat="48.77072" lon="2.14657">
        <ele>104.44</ele>
        <time>2015-06-14T09:21:34Z</time>
      </trkpt>
      <trkpt lat="48.77108" lon="2.14671">
        <ele>105.4</ele>
        <time>2015-06-14T09:21:57Z</time>
      </trkpt>
      <trkpt lat="48.77101" lon="2.14709">
        <ele>106.36</ele>
        <time>2015-06-14T09:22:14Z</time>
      </trkpt>
      <trkpt lat="48.77107" lon="2.14718">
        <ele>106.84</ele>
        <time>2015-06-14T09:22:24Z</time>
      </trkpt>
      <trkpt lat="48.77113" lon="2.14728">
        <ele>107.81</ele>
        <time>2015-06-14T09:22:40Z</time>
      </trkpt>
      <trkpt lat="48.77111" lon="2.14734">
        <ele>108.29</ele>
        <time>2015-06-14T09:23:05Z</time>
      </trkpt>
      <trkpt lat="48.7712" lon="2.14732">
        <ele>107.81</ele>
        <time>2015-06-14T09:23:28Z</time>
      </trkpt>
      <trkpt lat="48.77119" lon="2.1474">
        <ele>108.29</ele>
        <time>2015-06-14T09:23:55Z</time>
      </trkpt>
      <trkpt lat="48.77125" lon="2.14738">
        <ele>107.81</ele>
        <time>2015-06-14T09:24:08Z</time>
      </trkpt>
      <trkpt lat="48.77138" lon="2.14751">
        <ele>108.29</ele>
        <time>2015-06-14T09:24:23Z</time>
      </trkpt>
      <trkpt lat="48.77154" lon="2.14768">
        <ele>109.73</ele>
        <time>2015-06-14T09:24:39Z</time>
      </trkpt>
      <trkpt lat="48.7715" lon="2.14783">
        <ele>111.17</ele>
        <time>2015-06-14T09:24:52Z</time>
      </trkpt>
      <trkpt lat="48.77138" lon="2.14778">
        <ele>113.57</ele>
        <time>2015-06-14T09:25:09Z</time>
      </trkpt>
      <trkpt lat="48.77126" lon="2.14776">
        <ele>116.46</ele>
        <time>2015-06-14T09:25:27Z</time>
      </trkpt>
      <trkpt lat="48.7711" lon="2.14786">
        <ele>118.38</ele>
        <time>2015-06-14T09:25:47Z</time>
      </trkpt>
      <trkpt lat="48.77096" lon="2.14799">
        <ele>120.3</ele>
        <time>2015-06-14T09:26:07Z</time>
      </trkpt>
      <trkpt lat="48.77082" lon="2.14814">
        <ele>122.22</ele>
        <time>2015-06-14T09:26:26Z</time>
      </trkpt>
      <trkpt lat="48.77074" lon="2.1483">
        <ele>124.63</ele>
        <time>2015-06-14T09:26:46Z</time>
      </trkpt>
      <trkpt lat="48.77074" lon="2.14838">
        <ele>124.63</ele>
        <time>2015-06-14T09:27:08Z</time>
      </trkpt>
      <trkpt lat="48.77073" lon="2.14845">
        <ele>125.11</ele>
        <time>2015-06-14T09:27:28Z</time>
      </trkpt>
      <trkpt lat="48.77065" lon="2.14854">
        <ele>126.55</ele>
        <time>2015-06-14T09:27:41Z</time>
      </trkpt>
      <trkpt lat="48.77058" lon="2.14865">
        <ele>128.95</ele>
        <time>2015-06-14T09:27:55Z</time>
      </trkpt>
      <trkpt lat="48.77051" lon="2.14876">
        <ele>130.4</ele>
        <time>2015-06-14T09:28:11Z</time>
      </trkpt>
      <trkpt lat="48.77042" lon="2.14894">
        <ele>131.84</ele>
        <time>2015-06-14T09:28:27Z</time>
      </trkpt>
      <trkpt lat="48.77035" lon="2.14911">
        <ele>134.24</ele>
        <time>2015-06-14T09:28:45Z</time>
      </trkpt>
      <trkpt lat="48.77027" lon="2.14935">
        <ele>136.16</ele>
        <time>2015-06-14T09:29:05Z</time>
      </trkpt>
      <trkpt lat="48.7702" lon="2.14955">
        <ele>138.09</ele>
        <time>2015-06-14T09:29:24Z</time>
      </trkpt>
      <trkpt lat="48.77016" lon="2.14968">
        <ele>138.09</ele>
        <time>2015-06-14T09:29:45Z</time>
      </trkpt>
      <trkpt lat="48.7701" lon="2.14987">
        <ele>138.57</ele>
        <time>2015-06-14T09:30:02Z</time>
      </trkpt>
      <trkpt lat="48.77004" lon="2.15007">
        <ele>139.05</ele>
        <time>2015-06-14T09:30:18Z</time>
      </trkpt>
      <trkpt lat="48.77" lon="2.15025">
        <ele>140.49</ele>
        <time>2015-06-14T09:30:34Z</time>
      </trkpt>
      <trkpt lat="48.76998" lon="2.15039">
        <ele>140.97</ele>
        <time>2015-06-14T09:30:49Z</time>
      </trkpt>
      <trkpt lat="48.76997" lon="2.15061">
        <ele>141.93</ele>
        <time>2015-06-14T09:31:05Z</time>
      </trkpt>
      <trkpt lat="48.76998" lon="2.15075">
        <ele>141.93</ele>
        <time>2015-06-14T09:31:19Z</time>
      </trkpt>
      <trkpt lat="48.76998" lon="2.15095">
        <ele>142.41</ele>
        <time>2015-06-14T09:31:34Z</time>
      </trkpt>
      <trkpt lat="48.77002" lon="2.15119">
        <ele>142.41</ele>
        <time>2015-06-14T09:31:49Z</time>
      </trkpt>
      <trkpt lat="48.77002" lon="2.15127">
        <ele>142.89</ele>
        <time>2015-06-14T09:32:02Z</time>
      </trkpt>
      <trkpt lat="48.77002" lon="2.15122">
        <ele>142.89</ele>
        <time>2015-06-14T09:32:31Z</time>
      </trkpt>
      <trkpt lat="48.77006" lon="2.15135">
        <ele>143.37</ele>
        <time>2015-06-14T09:32:53Z</time>
      </trkpt>
      <trkpt lat="48.77003" lon="2.15144">
        <ele>143.37</ele>
        <time>2015-06-14T09:33:12Z</time>
      </trkpt>
      <trkpt lat="48.76993" lon="2.15141">
        <ele>143.37</ele>
        <time>2015-06-14T09:33:35Z</time>
      </trkpt>
      <trkpt lat="48.76996" lon="2.15141">
        <ele>143.37</ele>
        <time>2015-06-14T09:33:56Z</time>
      </trkpt>
      <trkpt lat="48.76998" lon="2.15136">
        <ele>143.37</ele>
        <time>2015-06-14T09:34:23Z</time>
      </trkpt>
      <trkpt lat="48.76997" lon="2.15133">
        <ele>142.89</ele>
        <time>2015-06-14T09:34:49Z</time>
      </trkpt>
      <trkpt lat="48.77008" lon="2.15153">
        <ele>143.37</ele>
        <time>2015-06-14T09:35:14Z</time>
      </trkpt>
      <trkpt lat="48.77016" lon="2.15163">
        <ele>144.82</ele>
        <time>2015-06-14T09:35:32Z</time>
      </trkpt>
      <trkpt lat="48.77025" lon="2.15176">
        <ele>147.22</ele>
        <time>2015-06-14T09:35:48Z</time>
      </trkpt>
      <trkpt lat="48.77034" lon="2.15186">
        <ele>148.66</ele>
        <time>2015-06-14T09:36:06Z</time>
      </trkpt>
      <trkpt lat="48.77045" lon="2.1519">
        <ele>149.62</ele>
        <time>2015-06-14T09:36:21Z</time>
      </trkpt>
      <trkpt lat="48.77057" lon="2.15195">
        <ele>151.06</ele>
        <time>2015-06-14T09:36:37Z</time>
      </trkpt>
      <trkpt lat="48.77064" lon="2.15207">
        <ele>152.03</ele>
        <time>2015-06-14T09:36:53Z</time>
      </trkpt>
      <trkpt lat="48.77075" lon="2.15216">
        <ele>152.99</ele>
        <time>2015-06-14T09:37:09Z</time>
      </trkpt>
      <trkpt lat="48.77088" lon="2.15229">
        <ele>154.43</ele>
        <time>2015-06-14T09:37:26Z</time>
      </trkpt>
      <trkpt lat="48.77089" lon="2.15238">
        <ele>154.91</ele>
        <time>2015-06-14T09:37:46Z</time>
      </trkpt>
      <trkpt lat="48.77101" lon="2.15252">
        <ele>155.39</ele>
        <time>2015-06-14T09:38:05Z</time>
      </trkpt>
      <trkpt lat="48.77105" lon="2.15268">
        <ele>156.35</ele>
        <time>2015-06-14T09:38:21Z</time>
      </trkpt>
      <trkpt lat="48.77103" lon="2.15283">
        <ele>156.83</ele>
        <time>2015-06-14T09:38:35Z</time>
      </trkpt>
      <trkpt lat="48.77101" lon="2.15292">
        <ele>156.83</ele>
        <time>2015-06-14T09:38:46Z</time>
      </trkpt>
      <trkpt lat="48.77102" lon="2.15296">
        <ele>156.83</ele>
        <time>2015-06-14T09:38:57Z</time>
      </trkpt>
      <trkpt lat="48.77102" lon="2.1531">
        <ele>156.83</ele>
        <time>2015-06-14T09:39:16Z</time>
      </trkpt>
      <trkpt lat="48.77104" lon="2.15334">
        <ele>157.79</ele>
        <time>2015-06-14T09:39:33Z</time>
      </trkpt>
      <trkpt lat="48.77104" lon="2.15365">
        <ele>157.79</ele>
        <time>2015-06-14T09:39:49Z</time>
      </trkpt>
      <trkpt lat="48.77103" lon="2.15385">
        <ele>157.79</ele>
        <time>2015-06-14T09:40:05Z</time>
      </trkpt>
      <trkpt lat="48.77101" lon="2.15414">
        <ele>158.75</ele>
        <time>2015-06-14T09:40:24Z</time>
      </trkpt>
      <trkpt lat="48.77104" lon="2.15441">
        <ele>158.75</ele>
        <time>2015-06-14T09:40:41Z</time>
      </trkpt>
      <trkpt lat="48.77102" lon="2.15452">
        <ele>158.75</ele>
        <time>2015-06-14T09:40:57Z</time>
      </trkpt>
      <trkpt lat="48.771" lon="2.1548">
        <ele>159.24</ele>
        <time>2015-06-14T09:41:13Z</time>
      </trkpt>
      <trkpt lat="48.77099" lon="2.15499">
        <ele>159.24</ele>
        <time>2015-06-14T09:41:27Z</time>
      </trkpt>
      <trkpt lat="48.77094" lon="2.15526">
        <ele>159.72</ele>
        <time>2015-06-14T09:41:46Z</time>
      </trkpt>
      <trkpt lat="48.77088" lon="2.15557">
        <ele>160.2</ele>
        <time>2015-06-14T09:42:07Z</time>
      </trkpt>
      <trkpt lat="48.77088" lon="2.15591">
        <ele>160.2</ele>
        <time>2015-06-14T09:42:30Z</time>
      </trkpt>
      <trkpt lat="48.77095" lon="2.15608">
        <ele>160.68</ele>
        <time>2015-06-14T09:42:50Z</time>
      </trkpt>
      <trkpt lat="48.77089" lon="2.15637">
        <ele>160.2</ele>
        <time>2015-06-14T09:43:14Z</time>
      </trkpt>
      <trkpt lat="48.77087" lon="2.1567">
        <ele>160.68</ele>
        <time>2015-06-14T09:43:32Z</time>
      </trkpt>
      <trkpt lat="48.77086" lon="2.15697">
        <ele>160.68</ele>
        <time>2015-06-14T09:43:53Z</time>
      </trkpt>
      <trkpt lat="48.77083" lon="2.15725">
        <ele>160.68</ele>
        <time>2015-06-14T09:44:11Z</time>
      </trkpt>
      <trkpt lat="48.77091" lon="2.15733">
        <ele>160.2</ele>
        <time>2015-06-14T09:44:28Z</time>
      </trkpt>
      <trkpt lat="48.77089" lon="2.15768">
        <ele>160.68</ele>
        <time>2015-06-14T09:44:48Z</time>
      </trkpt>
      <trkpt lat="48.77088" lon="2.15801">
        <ele>160.68</ele>
        <time>2015-06-14T09:45:09Z</time>
      </trkpt>
      <trkpt lat="48.77086" lon="2.15826">
        <ele>160.2</ele>
        <time>2015-06-14T09:45:26Z</time>
      </trkpt>
      <trkpt lat="48.77086" lon="2.15854">
        <ele>159.72</ele>
        <time>2015-06-14T09:45:46Z</time>
      </trkpt>
      <trkpt lat="48.77089" lon="2.15882">
        <ele>159.24</ele>
        <time>2015-06-14T09:46:05Z</time>
      </trkpt>
      <trkpt lat="48.7709" lon="2.15926">
        <ele>158.27</ele>
        <time>2015-06-14T09:46:27Z</time>
      </trkpt>
      <trkpt lat="48.77084" lon="2.1593">
        <ele>158.27</ele>
        <time>2015-06-14T09:46:39Z</time>
      </trkpt>
      <trkpt lat="48.77085" lon="2.15941">
        <ele>156.83</ele>
        <time>2015-06-14T09:46:51Z</time>
      </trkpt>
      <trkpt lat="48.77081" lon="2.15966">
        <ele>155.87</ele>
        <time>2015-06-14T09:47:09Z</time>
      </trkpt>
      <trkpt lat="48.77086" lon="2.15992">
        <ele>157.79</ele>
        <time>2015-06-14T09:47:29Z</time>
      </trkpt>
      <trkpt lat="48.77087" lon="2.15998">
        <ele>158.27</ele>
        <time>2015-06-14T09:47:43Z</time>
      </trkpt>
      <trkpt lat="48.77086" lon="2.16016">
        <ele>159.24</ele>
        <time>2015-06-14T09:47:57Z</time>
      </trkpt>
      <trkpt lat="48.77076" lon="2.16028">
        <ele>159.24</ele>
        <time>2015-06-14T09:48:14Z</time>
      </trkpt>
      <trkpt lat="48.77062" lon="2.16022">
        <ele>157.79</ele>
        <time>2015-06-14T09:48:34Z</time>
      </trkpt>
      <trkpt lat="48.77042" lon="2.1602">
        <ele>156.83</ele>
        <time>2015-06-14T09:48:56Z</time>
      </trkpt>
      <trkpt lat="48.77024" lon="2.16016">
        <ele>155.39</ele>
        <time>2015-06-14T09:49:14Z</time>
      </trkpt>
      <trkpt lat="48.77005" lon="2.16014">
        <ele>154.43</ele>
        <time>2015-06-14T09:49:33Z</time>
      </trkpt>
      <trkpt lat="48.76983" lon="2.16012">
        <ele>153.47</ele>
        <time>2015-06-14T09:49:56Z</time>
      </trkpt>
      <trkpt lat="48.76962" lon="2.16012">
        <ele>152.99</ele>
        <time>2015-06-14T09:50:15Z</time>
      </trkpt>
      <trkpt lat="48.76957" lon="2.16011">
        <ele>152.51</ele>
        <time>2015-06-14T09:50:21Z</time>
      </trkpt>
      <trkpt lat="48.76943" lon="2.16007">
        <ele>151.54</ele>
        <time>2015-06-14T09:50:38Z</time>
      </trkpt>
      <trkpt lat="48.76924" lon="2.16005">
        <ele>150.58</ele>
        <time>2015-06-14T09:50:56Z</time>
      </trkpt>
      <trkpt lat="48.76908" lon="2.16002">
        <ele>150.1</ele>
        <time>2015-06-14T09:51:11Z</time>
      </trkpt>
      <trkpt lat="48.76893" lon="2.16002">
        <ele>148.66</ele>
        <time>2015-06-14T09:51:30Z</time>
      </trkpt>
      <trkpt lat="48.76873" lon="2.16">
        <ele>147.7</ele>
        <time>2015-06-14T09:51:49Z</time>
      </trkpt>
      <trkpt lat="48.7687" lon="2.16002">
        <ele>147.7</ele>
        <time>2015-06-14T09:52:09Z</time>
      </trkpt>
      <trkpt lat="48.76873" lon="2.16001">
        <ele>148.18</ele>
        <time>2015-06-14T09:52:34Z</time>
      </trkpt>
      <trkpt lat="48.76857" lon="2.15997">
        <ele>146.74</ele>
        <time>2015-06-14T09:52:55Z</time>
      </trkpt>
      <trkpt lat="48.76841" lon="2.16">
        <ele>145.3</ele>
        <time>2015-06-14T09:53:15Z</time>
      </trkpt>
      <trkpt lat="48.76829" lon="2.16015">
        <ele>144.34</ele>
        <time>2015-06-14T09:53:32Z</time>
      </trkpt>
      <trkpt lat="48.76827" lon="2.16022">
        <ele>145.3</ele>
        <time>2015-06-14T09:53:52Z</time>
      </trkpt>
      <trkpt lat="48.76826" lon="2.16023">
        <ele>144.82</ele>
        <time>2015-06-14T09:54:14Z</time>
      </trkpt>
      <trkpt lat="48.76821" lon="2.16043">
        <ele>144.82</ele>
        <time>2015-06-14T09:54:36Z</time>
      </trkpt>
      <trkpt lat="48.76816" lon="2.1607">
        <ele>145.3</ele>
        <time>2015-06-14T09:54:58Z</time>
      </trkpt>
      <trkpt lat="48.76809" lon="2.16082">
        <ele>145.78</ele>
        <time>2015-06-14T09:55:17Z</time>
      </trkpt>
      <trkpt lat="48.76808" lon="2.16092">
        <ele>145.78</ele>
        <time>2015-06-14T09:55:40Z</time>
      </trkpt>
      <trkpt lat="48.76819" lon="2.16124">
        <ele>146.26</ele>
        <time>2015-06-14T09:55:58Z</time>
      </trkpt>
      <trkpt lat="48.76824" lon="2.16141">
        <ele>146.74</ele>
        <time>2015-06-14T09:56:13Z</time>
      </trkpt>
      <trkpt lat="48.76825" lon="2.16144">
        <ele>146.74</ele>
        <time>2015-06-14T09:56:15Z</time>
      </trkpt>
      <trkpt lat="48.76832" lon="2.16164">
        <ele>147.7</ele>
        <time>2015-06-14T09:56:30Z</time>
      </trkpt>
      <trkpt lat="48.76843" lon="2.1619">
        <ele>148.18</ele>
        <time>2015-06-14T09:56:49Z</time>
      </trkpt>
      <trkpt lat="48.76856" lon="2.16222">
        <ele>148.66</ele>
        <time>2015-06-14T09:57:12Z</time>
      </trkpt>
      <trkpt lat="48.76863" lon="2.16255">
        <ele>148.66</ele>
        <time>2015-06-14T09:57:31Z</time>
      </trkpt>
      <trkpt lat="48.76867" lon="2.16279">
        <ele>148.66</ele>
        <time>2015-06-14T09:57:49Z</time>
      </trkpt>
      <trkpt lat="48.76864" lon="2.16303">
        <ele>148.66</ele>
        <time>2015-06-14T09:58:04Z</time>
      </trkpt>
      <trkpt lat="48.76857" lon="2.16321">
        <ele>148.66</ele>
        <time>2015-06-14T09:58:15Z</time>
      </trkpt>
      <trkpt lat="48.76845" lon="2.16352">
        <ele>148.66</ele>
        <time>2015-06-14T09:58:36Z</time>
      </trkpt>
      <trkpt lat="48.76838" lon="2.16383">
        <ele>149.14</ele>
        <time>2015-06-14T09:58:56Z</time>
      </trkpt>
      <trkpt lat="48.76837" lon="2.16409">
        <ele>150.58</ele>
        <time>2015-06-14T09:59:10Z</time>
      </trkpt>
      <trkpt lat="48.76838" lon="2.16433">
        <ele>151.06</ele>
        <time>2015-06-14T09:59:26Z</time>
      </trkpt>
      <trkpt lat="48.76842" lon="2.1646">
        <ele>151.06</ele>
        <time>2015-06-14T09:59:43Z</time>
      </trkpt>
      <trkpt lat="48.76847" lon="2.16473">
        <ele>152.03</ele>
        <time>2015-06-14T09:59:52Z</time>
      </trkpt>
      <trkpt lat="48.76853" lon="2.16503">
        <ele>152.03</ele>
        <time>2015-06-14T10:00:10Z</time>
      </trkpt>
      <trkpt lat="48.76853" lon="2.16506">
        <ele>152.03</ele>
        <time>2015-06-14T10:00:12Z</time>
      </trkpt>
      <trkpt lat="48.76859" lon="2.16533">
        <ele>152.51</ele>
        <time>2015-06-14T10:00:27Z</time>
      </trkpt>
      <trkpt lat="48.76861" lon="2.16545">
        <ele>152.51</ele>
        <time>2015-06-14T10:00:35Z</time>
      </trkpt>
      <trkpt lat="48.76866" lon="2.16557">
        <ele>152.51</ele>
        <time>2015-06-14T10:00:46Z</time>
      </trkpt>
      <trkpt lat="48.76867" lon="2.16559">
        <ele>152.99</ele>
        <time>2015-06-14T10:00:48Z</time>
      </trkpt>
      <trkpt lat="48.76869" lon="2.16564">
        <ele>152.51</ele>
        <time>2015-06-14T10:00:52Z</time>
      </trkpt>
      <trkpt lat="48.76876" lon="2.16588">
        <ele>152.99</ele>
        <time>2015-06-14T10:01:08Z</time>
      </trkpt>
      <trkpt lat="48.76879" lon="2.16614">
        <ele>152.99</ele>
        <time>2015-06-14T10:01:24Z</time>
      </trkpt>
      <trkpt lat="48.76888" lon="2.16643">
        <ele>153.47</ele>
        <time>2015-06-14T10:01:41Z</time>
      </trkpt>
      <trkpt lat="48.76886" lon="2.16655">
        <ele>153.47</ele>
        <time>2015-06-14T10:01:52Z</time>
      </trkpt>
      <trkpt lat="48.76886" lon="2.16665">
        <ele>154.43</ele>
        <time>2015-06-14T10:02:08Z</time>
      </trkpt>
      <trkpt lat="48.76887" lon="2.16664">
        <ele>153.95</ele>
        <time>2015-06-14T10:02:27Z</time>
      </trkpt>
      <trkpt lat="48.76887" lon="2.16669">
        <ele>153.47</ele>
        <time>2015-06-14T10:02:50Z</time>
      </trkpt>
      <trkpt lat="48.76886" lon="2.16695">
        <ele>153.47</ele>
        <time>2015-06-14T10:03:08Z</time>
      </trkpt>
      <trkpt lat="48.76883" lon="2.16722">
        <ele>153.47</ele>
        <time>2015-06-14T10:03:23Z</time>
      </trkpt>
      <trkpt lat="48.76883" lon="2.16743">
        <ele>152.99</ele>
        <time>2015-06-14T10:03:37Z</time>
      </trkpt>
      <trkpt lat="48.76877" lon="2.16769">
        <ele>152.99</ele>
        <time>2015-06-14T10:03:53Z</time>
      </trkpt>
      <trkpt lat="48.76872" lon="2.1679">
        <ele>153.47</ele>
        <time>2015-06-14T10:04:09Z</time>
      </trkpt>
      <trkpt lat="48.76871" lon="2.16793">
        <ele>153.47</ele>
        <time>2015-06-14T10:04:11Z</time>
      </trkpt>
      <trkpt lat="48.7687" lon="2.16798">
        <ele>153.47</ele>
        <time>2015-06-14T10:04:14Z</time>
      </trkpt>
      <trkpt lat="48.76862" lon="2.16823">
        <ele>153.95</ele>
        <time>2015-06-14T10:04:33Z</time>
      </trkpt>
      <trkpt lat="48.76862" lon="2.16834">
        <ele>153.95</ele>
        <time>2015-06-14T10:04:44Z</time>
      </trkpt>
      <trkpt lat="48.76862" lon="2.16857">
        <ele>154.43</ele>
        <time>2015-06-14T10:05:00Z</time>
      </trkpt>
      <trkpt lat="48.76864" lon="2.16878">
        <ele>154.91</ele>
        <time>2015-06-14T10:05:16Z</time>
      </trkpt>
      <trkpt lat="48.76862" lon="2.16883">
        <ele>154.91</ele>
        <time>2015-06-14T10:05:31Z</time>
      </trkpt>
      <trkpt lat="48.76854" lon="2.16885">
        <ele>152.99</ele>
        <time>2015-06-14T10:05:47Z</time>
      </trkpt>
      <trkpt lat="48.76845" lon="2.16888">
        <ele>150.58</ele>
        <time>2015-06-14T10:06:01Z</time>
      </trkpt>
      <trkpt lat="48.76839" lon="2.16894">
        <ele>148.18</ele>
        <time>2015-06-14T10:06:15Z</time>
      </trkpt>
      <trkpt lat="48.76827" lon="2.1689">
        <ele>145.78</ele>
        <time>2015-06-14T10:06:35Z</time>
      </trkpt>
      <trkpt lat="48.76829" lon="2.16906">
        <ele>142.41</ele>
        <time>2015-06-14T10:06:47Z</time>
      </trkpt>
      <trkpt lat="48.76827" lon="2.16912">
        <ele>139.53</ele>
        <time>2015-06-14T10:07:04Z</time>
      </trkpt>
      <trkpt lat="48.76824" lon="2.16928">
        <ele>137.13</ele>
        <time>2015-06-14T10:07:24Z</time>
      </trkpt>
      <trkpt lat="48.76818" lon="2.16938">
        <ele>134.72</ele>
        <time>2015-06-14T10:07:35Z</time>
      </trkpt>
      <trkpt lat="48.76813" lon="2.1695">
        <ele>132.32</ele>
        <time>2015-06-14T10:07:50Z</time>
      </trkpt>
      <trkpt lat="48.76812" lon="2.16954">
        <ele>130.88</ele>
        <time>2015-06-14T10:08:03Z</time>
      </trkpt>
      <trkpt lat="48.76812" lon="2.16955">
        <ele>130.88</ele>
        <time>2015-06-14T10:08:05Z</time>
      </trkpt>
      <trkpt lat="48.76806" lon="2.16973">
        <ele>127.03</ele>
        <time>2015-06-14T10:08:21Z</time>
      </trkpt>
      <trkpt lat="48.76798" lon="2.16988">
        <ele>124.15</ele>
        <time>2015-06-14T10:08:35Z</time>
      </trkpt>
      <trkpt lat="48.76786" lon="2.16996">
        <ele>120.78</ele>
        <time>2015-06-14T10:08:51Z</time>
      </trkpt>
      <trkpt lat="48.76777" lon="2.17003">
        <ele>119.82</ele>
        <time>2015-06-14T10:09:06Z</time>
      </trkpt>
      <trkpt lat="48.76782" lon="2.17001">
        <ele>119.82</ele>
        <time>2015-06-14T10:09:20Z</time>
      </trkpt>
      <trkpt lat="48.7677" lon="2.1701">
        <ele>118.38</ele>
        <time>2015-06-14T10:09:37Z</time>
      </trkpt>
      <trkpt lat="48.76758" lon="2.1702">
        <ele>117.42</ele>
        <time>2015-06-14T10:09:54Z</time>
      </trkpt>
      <trkpt lat="48.76752" lon="2.17022">
        <ele>116.46</ele>
        <time>2015-06-14T10:10:10Z</time>
      </trkpt>
      <trkpt lat="48.76755" lon="2.17017">
        <ele>115.98</ele>
        <time>2015-06-14T10:10:34Z</time>
      </trkpt>
      <trkpt lat="48.76752" lon="2.17013">
        <ele>115.98</ele>
        <time>2015-06-14T10:10:53Z</time>
      </trkpt>
      <trkpt lat="48.76748" lon="2.17">
        <ele>115.5</ele>
        <time>2015-06-14T10:11:09Z</time>
      </trkpt>
      <trkpt lat="48.76751" lon="2.16984">
        <ele>115.98</ele>
        <time>2015-06-14T10:11:25Z</time>
      </trkpt>
      <trkpt lat="48.76755" lon="2.16972">
        <ele>115.98</ele>
        <time>2015-06-14T10:11:33Z</time>
      </trkpt>
      <trkpt lat="48.76754" lon="2.16955">
        <ele>115.98</ele>
        <time>2015-06-14T10:11:42Z</time>
      </trkpt>
      <trkpt lat="48.7676" lon="2.16935">
        <ele>116.94</ele>
        <time>2015-06-14T10:11:58Z</time>
      </trkpt>
      <trkpt lat="48.76763" lon="2.16915">
        <ele>117.9</ele>
        <time>2015-06-14T10:12:14Z</time>
      </trkpt>
      <trkpt lat="48.76764" lon="2.16895">
        <ele>118.38</ele>
        <time>2015-06-14T10:12:28Z</time>
      </trkpt>
      <trkpt lat="48.76763" lon="2.16867">
        <ele>119.34</ele>
        <time>2015-06-14T10:12:46Z</time>
      </trkpt>
      <trkpt lat="48.76767" lon="2.16845">
        <ele>118.38</ele>
        <time>2015-06-14T10:13:02Z</time>
      </trkpt>
      <trkpt lat="48.76768" lon="2.16833">
        <ele>116.94</ele>
        <time>2015-06-14T10:13:15Z</time>
      </trkpt>
      <trkpt lat="48.76759" lon="2.1684">
        <ele>114.53</ele>
        <time>2015-06-14T10:13:34Z</time>
      </trkpt>
      <trkpt lat="48.76743" lon="2.1684">
        <ele>111.65</ele>
        <time>2015-06-14T10:13:51Z</time>
      </trkpt>
      <trkpt lat="48.7673" lon="2.16842">
        <ele>108.77</ele>
        <time>2015-06-14T10:14:09Z</time>
      </trkpt>
      <trkpt lat="48.76714" lon="2.16838">
        <ele>105.88</ele>
        <time>2015-06-14T10:14:26Z</time>
      </trkpt>
      <trkpt lat="48.76705" lon="2.16838">
        <ele>104.92</ele>
        <time>2015-06-14T10:14:35Z</time>
      </trkpt>
      <trkpt lat="48.76687" lon="2.1683">
        <ele>102.04</ele>
        <time>2015-06-14T10:14:55Z</time>
      </trkpt>
      <trkpt lat="48.76676" lon="2.16819">
        <ele>100.11</ele>
        <time>2015-06-14T10:15:11Z</time>
      </trkpt>
      <trkpt lat="48.76681" lon="2.16804">
        <ele>100.11</ele>
        <time>2015-06-14T10:15:25Z</time>
      </trkpt>
      <trkpt lat="48.76684" lon="2.16785">
        <ele>100.11</ele>
        <time>2015-06-14T10:15:36Z</time>
      </trkpt>
      <trkpt lat="48.76682" lon="2.16771">
        <ele>100.6</ele>
        <time>2015-06-14T10:15:48Z</time>
      </trkpt>
      <trkpt lat="48.76683" lon="2.16793">
        <ele>100.11</ele>
        <time>2015-06-14T10:16:02Z</time>
      </trkpt>
      <trkpt lat="48.76681" lon="2.16804">
        <ele>100.11</ele>
        <time>2015-06-14T10:16:11Z</time>
      </trkpt>
      <trkpt lat="48.76678" lon="2.16799">
        <ele>99.15</ele>
        <time>2015-06-14T10:16:22Z</time>
      </trkpt>
      <trkpt lat="48.76681" lon="2.16783">
        <ele>99.15</ele>
        <time>2015-06-14T10:16:32Z</time>
      </trkpt>
      <trkpt lat="48.76681" lon="2.16766">
        <ele>98.67</ele>
        <time>2015-06-14T10:16:48Z</time>
      </trkpt>
      <trkpt lat="48.76676" lon="2.16763">
        <ele>98.67</ele>
        <time>2015-06-14T10:16:56Z</time>
      </trkpt>
      <trkpt lat="48.76678" lon="2.16758">
        <ele>98.67</ele>
        <time>2015-06-14T10:17:11Z</time>
      </trkpt>
      <trkpt lat="48.76686" lon="2.16749">
        <ele>98.19</ele>
        <time>2015-06-14T10:17:16Z</time>
      </trkpt>
      <trkpt lat="48.76687" lon="2.16729">
        <ele>98.19</ele>
        <time>2015-06-14T10:17:30Z</time>
      </trkpt>
      <trkpt lat="48.76689" lon="2.16707">
        <ele>98.67</ele>
        <time>2015-06-14T10:17:46Z</time>
      </trkpt>
      <trkpt lat="48.76679" lon="2.16682">
        <ele>98.67</ele>
        <time>2015-06-14T10:18:01Z</time>
      </trkpt>
      <trkpt lat="48.76672" lon="2.16653">
        <ele>99.15</ele>
        <time>2015-06-14T10:18:17Z</time>
      </trkpt>
      <trkpt lat="48.76671" lon="2.16627">
        <ele>99.15</ele>
        <time>2015-06-14T10:18:34Z</time>
      </trkpt>
      <trkpt lat="48.7667" lon="2.16595">
        <ele>99.15</ele>
        <time>2015-06-14T10:18:54Z</time>
      </trkpt>
      <trkpt lat="48.76672" lon="2.16577">
        <ele>99.15</ele>
        <time>2015-06-14T10:19:09Z</time>
      </trkpt>
      <trkpt lat="48.76669" lon="2.16536">
        <ele>98.67</ele>
        <time>2015-06-14T10:19:31Z</time>
      </trkpt>
      <trkpt lat="48.7666" lon="2.16513">
        <ele>98.67</ele>
        <time>2015-06-14T10:19:48Z</time>
      </trkpt>
      <trkpt lat="48.76655" lon="2.16485">
        <ele>98.19</ele>
        <time>2015-06-14T10:20:04Z</time>
      </trkpt>
      <trkpt lat="48.76651" lon="2.16475">
        <ele>98.67</ele>
        <time>2015-06-14T10:20:11Z</time>
      </trkpt>
      <trkpt lat="48.7664" lon="2.1646">
        <ele>98.19</ele>
        <time>2015-06-14T10:20:27Z</time>
      </trkpt>
      <trkpt lat="48.76628" lon="2.1646">
        <ele>96.75</ele>
        <time>2015-06-14T10:20:42Z</time>
      </trkpt>
      <trkpt lat="48.76614" lon="2.16462">
        <ele>95.79</ele>
        <time>2015-06-14T10:21:03Z</time>
      </trkpt>
      <trkpt lat="48.76601" lon="2.16465">
        <ele>94.35</ele>
        <time>2015-06-14T10:21:24Z</time>
      </trkpt>
      <trkpt lat="48.76595" lon="2.16469">
        <ele>93.87</ele>
        <time>2015-06-14T10:21:45Z</time>
      </trkpt>
      <trkpt lat="48.76592" lon="2.16469">
        <ele>93.39</ele>
        <time>2015-06-14T10:22:09Z</time>
      </trkpt>
      <trkpt lat="48.76583" lon="2.16473">
        <ele>92.42</ele>
        <time>2015-06-14T10:22:23Z</time>
      </trkpt>
      <trkpt lat="48.7657" lon="2.16478">
        <ele>91.46</ele>
        <time>2015-06-14T10:22:38Z</time>
      </trkpt>
      <trkpt lat="48.76557" lon="2.16479">
        <ele>90.98</ele>
        <time>2015-06-14T10:22:52Z</time>
      </trkpt>
      <trkpt lat="48.76556" lon="2.1648">
        <ele>91.46</ele>
        <time>2015-06-14T10:22:54Z</time>
      </trkpt>
      <trkpt lat="48.76544" lon="2.1648">
        <ele>90.5</ele>
        <time>2015-06-14T10:23:09Z</time>
      </trkpt>
      <trkpt lat="48.76538" lon="2.16481">
        <ele>90.5</ele>
        <time>2015-06-14T10:23:15Z</time>
      </trkpt>
      <trkpt lat="48.76529" lon="2.16479">
        <ele>90.5</ele>
        <time>2015-06-14T10:23:30Z</time>
      </trkpt>
      <trkpt lat="48.76522" lon="2.16481">
        <ele>90.5</ele>
        <time>2015-06-14T10:23:37Z</time>
      </trkpt>
      <trkpt lat="48.7651" lon="2.16483">
        <ele>90.5</ele>
        <time>2015-06-14T10:23:54Z</time>
      </trkpt>
      <trkpt lat="48.76509" lon="2.16485">
        <ele>90.5</ele>
        <time>2015-06-14T10:23:57Z</time>
      </trkpt>
      <trkpt lat="48.76511" lon="2.16515">
        <ele>90.5</ele>
        <time>2015-06-14T10:24:15Z</time>
      </trkpt>
      <trkpt lat="48.76512" lon="2.16514">
        <ele>90.5</ele>
        <time>2015-06-14T10:24:29Z</time>
      </trkpt>
      <trkpt lat="48.7651" lon="2.16518">
        <ele>90.5</ele>
        <time>2015-06-14T10:24:41Z</time>
      </trkpt>
      <trkpt lat="48.7651" lon="2.16532">
        <ele>90.02</ele>
        <time>2015-06-14T10:24:53Z</time>
      </trkpt>
      <trkpt lat="48.76506" lon="2.16553">
        <ele>90.5</ele>
        <time>2015-06-14T10:25:08Z</time>
      </trkpt>
      <trkpt lat="48.76505" lon="2.1654">
        <ele>90.5</ele>
        <time>2015-06-14T10:25:25Z</time>
      </trkpt>
      <trkpt lat="48.76507" lon="2.16537">
        <ele>90.02</ele>
        <time>2015-06-14T10:25:27Z</time>
      </trkpt>
      <trkpt lat="48.76508" lon="2.1653">
        <ele>90.5</ele>
        <time>2015-06-14T10:25:32Z</time>
      </trkpt>
      <trkpt lat="48.76505" lon="2.1652">
        <ele>90.5</ele>
        <time>2015-06-14T10:25:47Z</time>
      </trkpt>
      <trkpt lat="48.76493" lon="2.16524">
        <ele>91.46</ele>
        <time>2015-06-14T10:26:01Z</time>
      </trkpt>
      <trkpt lat="48.76493" lon="2.1652">
        <ele>90.98</ele>
        <time>2015-06-14T10:26:18Z</time>
      </trkpt>
      <trkpt lat="48.76493" lon="2.16518">
        <ele>90.98</ele>
        <time>2015-06-14T10:26:36Z</time>
      </trkpt>
      <trkpt lat="48.76494" lon="2.16518">
        <ele>90.98</ele>
        <time>2015-06-14T10:26:57Z</time>
      </trkpt>
      <trkpt lat="48.76494" lon="2.16519">
        <ele>90.98</ele>
        <time>2015-06-14T10:27:25Z</time>
      </trkpt>
      <trkpt lat="48.76495" lon="2.16522">
        <ele>90.98</ele>
        <time>2015-06-14T10:27:48Z</time>
      </trkpt>
      <trkpt lat="48.76492" lon="2.16519">
        <ele>90.5</ele>
        <time>2015-06-14T10:28:07Z</time>
      </trkpt>
      <trkpt lat="48.76492" lon="2.16517">
        <ele>90.5</ele>
        <time>2015-06-14T10:28:18Z</time>
      </trkpt>
      <trkpt lat="48.76494" lon="2.16516">
        <ele>90.98</ele>
        <time>2015-06-14T10:28:37Z</time>
      </trkpt>
    </trkseg>
  </trk>
</gpx>